Wetterdaten: Dienstag, 08.05.2012
Datum Zeit Temp. A. Feuchte A. Regen Wind Richtung Richtung Taupunkt Windchill Windben
08.05.2012 00:00 7,0 C 82 % 0,0 l/m 0,2 km/h (0 Bft) N-NO 22 4,1 C 4,7 C 2,6 km/h (1 Bft)
08.05.2012 00:02 7,0 C 83 % 0,0 l/m 0,2 km/h (0 Bft) N-NO 22 4,3 C 4,8 C 2,6 km/h (1 Bft)
08.05.2012 00:04 7,1 C 83 % 0,0 l/m 0,2 km/h (0 Bft) NO 45 4,4 C 4,8 C 0,0 km/h (0 Bft)
08.05.2012 00:06 7,1 C 83 % 0,0 l/m 0,2 km/h (0 Bft) N 360 4,4 C 4,8 C 0,0 km/h (0 Bft)
08.05.2012 00:08 7,0 C 82 % 0,0 l/m 0,2 km/h (0 Bft) SO 135 4,1 C 4,8 C 0,0 km/h (0 Bft)
08.05.2012 00:10 6,9 C 82 % 0,0 l/m 0,2 km/h (0 Bft) O-SO 112 4,0 C 4,8 C 0,0 km/h (0 Bft)
08.05.2012 00:12 6,8 C 83 % 0,0 l/m 0,0 km/h (0 Bft) NO 45 4,1 C 4,8 C 0,0 km/h (0 Bft)
08.05.2012 00:14 6,8 C 83 % 0,0 l/m 0,2 km/h (0 Bft) NO 45 4,1 C 4,8 C 1,6 km/h (1 Bft)
08.05.2012 00:16 6,9 C 84 % 0,0 l/m 0,3 km/h (0 Bft) NO 45 4,4 C 4,8 C 1,9 km/h (1 Bft)
08.05.2012 00:18 6,9 C 84 % 0,0 l/m 0,3 km/h (0 Bft) O-NO 67 4,4 C 4,8 C 1,9 km/h (1 Bft)
08.05.2012 00:20 6,9 C 83 % 0,0 l/m 0,5 km/h (0 Bft) NO 45 4,2 C 5,0 C 1,6 km/h (1 Bft)
08.05.2012 00:22 6,9 C 83 % 0,0 l/m 0,5 km/h (0 Bft) NO 45 4,2 C 5,0 C 1,6 km/h (1 Bft)
08.05.2012 00:24 6,9 C 83 % 0,0 l/m 0,5 km/h (0 Bft) NO 45 4,2 C 5,1 C 1,6 km/h (1 Bft)
08.05.2012 00:26 6,9 C 83 % 0,0 l/m 0,3 km/h (0 Bft) N 360 4,2 C 5,1 C 0,0 km/h (0 Bft)
08.05.2012 00:28 6,8 C 83 % 0,0 l/m 0,2 km/h (0 Bft) N-NO 22 4,1 C 5,1 C 0,0 km/h (0 Bft)
08.05.2012 00:30 6,8 C 83 % 0,0 l/m 0,2 km/h (0 Bft) W-NW 292 4,1 C 5,0 C 0,0 km/h (0 Bft)
08.05.2012 00:32 6,9 C 83 % 0,0 l/m 0,0 km/h (0 Bft) N-NW 337 4,2 C 4,8 C 0,0 km/h (0 Bft)
08.05.2012 00:34 6,9 C 83 % 0,0 l/m 0,0 km/h (0 Bft) NO 45 4,2 C 4,8 C 0,0 km/h (0 Bft)
08.05.2012 00:36 6,8 C 83 % 0,0 l/m 0,0 km/h (0 Bft) S 180 4,1 C 4,7 C 0,0 km/h (0 Bft)
08.05.2012 00:38 6,8 C 82 % 0,0 l/m 0,0 km/h (0 Bft) W-SW 247 3,9 C 4,6 C 0,0 km/h (0 Bft)
08.05.2012 00:40 6,7 C 82 % 0,0 l/m 0,0 km/h (0 Bft) N 360 3,8 C 4,5 C 0,0 km/h (0 Bft)
08.05.2012 00:42 6,7 C 83 % 0,0 l/m 0,0 km/h (0 Bft) S 180 4,0 C 4,4 C 0,0 km/h (0 Bft)
08.05.2012 00:44 6,6 C 83 % 0,0 l/m 0,0 km/h (0 Bft) N-NO 22 3,9 C 4,3 C 0,0 km/h (0 Bft)
08.05.2012 00:46 6,5 C 83 % 0,0 l/m 0,0 km/h (0 Bft) W-NW 292 3,8 C 4,2 C 0,0 km/h (0 Bft)
08.05.2012 00:48 6,5 C 83 % 0,0 l/m 0,0 km/h (0 Bft) N 360 3,8 C 4,1 C 0,0 km/h (0 Bft)
08.05.2012 00:50 6,5 C 83 % 0,0 l/m 0,0 km/h (0 Bft) S-SW 202 3,8 C 4,1 C 0,0 km/h (0 Bft)
08.05.2012 00:52 6,4 C 83 % 0,0 l/m 0,0 km/h (0 Bft) S-SO 157 3,7 C 4,0 C 0,0 km/h (0 Bft)
08.05.2012 00:54 6,4 C 83 % 0,0 l/m 0,0 km/h (0 Bft) S-SO 157 3,7 C 4,0 C 0,0 km/h (0 Bft)
08.05.2012 00:56 6,4 C 83 % 0,0 l/m 0,0 km/h (0 Bft) W-NW 292 3,7 C 3,8 C 0,0 km/h (0 Bft)
08.05.2012 00:58 6,3 C 83 % 0,0 l/m 0,0 km/h (0 Bft) NO 45 3,6 C 3,9 C 0,0 km/h (0 Bft)
08.05.2012 01:00 6,2 C 83 % 0,0 l/m 0,0 km/h (0 Bft) W-NW 292 3,5 C 3,8 C 1,8 km/h (1 Bft)
08.05.2012 01:02 6,2 C 83 % 0,0 l/m 0,0 km/h (0 Bft) S 180 3,5 C 3,8 C 1,8 km/h (1 Bft)
08.05.2012 01:04 6,3 C 83 % 0,0 l/m 0,0 km/h (0 Bft) S 180 3,6 C 3,8 C 0,0 km/h (0 Bft)
08.05.2012 01:06 6,2 C 83 % 0,0 l/m 0,0 km/h (0 Bft) N 360 3,5 C 3,7 C 0,0 km/h (0 Bft)
08.05.2012 01:08 6,1 C 83 % 0,0 l/m 0,3 km/h (0 Bft) SO 135 3,4 C 3,7 C 0,0 km/h (0 Bft)
08.05.2012 01:10 6,0 C 83 % 0,0 l/m 0,6 km/h (0 Bft) NW 315 3,3 C 3,7 C 1,9 km/h (1 Bft)
08.05.2012 01:12 6,0 C 83 % 0,0 l/m 0,6 km/h (0 Bft) N-NW 337 3,3 C 3,7 C 1,9 km/h (1 Bft)
08.05.2012 01:14 5,9 C 83 % 0,0 l/m 0,6 km/h (0 Bft) N-NO 22 3,2 C 3,6 C 0,0 km/h (0 Bft)
08.05.2012 01:16 5,9 C 83 % 0,0 l/m 0,6 km/h (0 Bft) W-NW 292 3,2 C 3,5 C 3,9 km/h (1 Bft)
08.05.2012 01:18 5,9 C 83 % 0,0 l/m 0,5 km/h (0 Bft) N-NW 337 3,2 C 3,5 C 0,0 km/h (0 Bft)
08.05.2012 01:20 5,8 C 83 % 0,0 l/m 0,2 km/h (0 Bft) W-NW 292 3,1 C 3,5 C 0,0 km/h (0 Bft)
08.05.2012 01:22 5,9 C 83 % 0,0 l/m 0,0 km/h (0 Bft) N 360 3,2 C 3,5 C 0,0 km/h (0 Bft)
08.05.2012 01:24 5,8 C 83 % 0,0 l/m 0,0 km/h (0 Bft) W 270 3,1 C 3,5 C 0,0 km/h (0 Bft)
08.05.2012 01:26 5,8 C 83 % 0,0 l/m 0,0 km/h (0 Bft) N-NO 22 3,1 C 3,5 C 0,0 km/h (0 Bft)
08.05.2012 01:28 5,9 C 83 % 0,0 l/m 0,0 km/h (0 Bft) W-SW 247 3,2 C 3,5 C 0,0 km/h (0 Bft)
08.05.2012 01:30 5,9 C 84 % 0,0 l/m 0,0 km/h (0 Bft) S 180 3,4 C 3,5 C 0,0 km/h (0 Bft)
08.05.2012 01:32 5,9 C 84 % 0,0 l/m 0,0 km/h (0 Bft) S-SO 157 3,4 C 3,4 C 0,0 km/h (0 Bft)
08.05.2012 01:34 5,8 C 84 % 0,0 l/m 0,0 km/h (0 Bft) S-SO 157 3,3 C 3,4 C 0,0 km/h (0 Bft)
08.05.2012 01:36 5,9 C 84 % 0,0 l/m 0,0 km/h (0 Bft) W-SW 247 3,4 C 3,3 C 0,0 km/h (0 Bft)
08.05.2012 01:38 5,9 C 83 % 0,0 l/m 0,0 km/h (0 Bft) W-NW 292 3,2 C 3,3 C 0,0 km/h (0 Bft)
08.05.2012 01:40 5,9 C 83 % 0,0 l/m 0,0 km/h (0 Bft) W-SW 247 3,2 C 3,2 C 0,0 km/h (0 Bft)
08.05.2012 01:42 5,7 C 83 % 0,0 l/m 0,0 km/h (0 Bft) W-SW 247 3,0 C 3,2 C 0,0 km/h (0 Bft)
08.05.2012 01:44 5,7 C 83 % 0,0 l/m 0,0 km/h (0 Bft) N 360 3,0 C 3,2 C 0,0 km/h (0 Bft)
08.05.2012 01:46 5,6 C 83 % 0,0 l/m 0,0 km/h (0 Bft) NW 315 2,9 C 3,1 C 0,0 km/h (0 Bft)
08.05.2012 01:48 5,6 C 83 % 0,0 l/m 0,0 km/h (0 Bft) N-NO 22 2,9 C 3,1 C 0,0 km/h (0 Bft)
08.05.2012 01:50 5,7 C 83 % 0,0 l/m 0,0 km/h (0 Bft) O 90 3,0 C 3,1 C 0,0 km/h (0 Bft)
08.05.2012 01:52 5,6 C 83 % 0,0 l/m 0,0 km/h (0 Bft) S 180 2,9 C 3,0 C 0,0 km/h (0 Bft)
08.05.2012 01:54 5,6 C 83 % 0,0 l/m 0,0 km/h (0 Bft) S 180 2,9 C 2,9 C 0,0 km/h (0 Bft)
08.05.2012 01:56 5,5 C 83 % 0,0 l/m 0,0 km/h (0 Bft) S 180 2,8 C 2,9 C 0,0 km/h (0 Bft)
08.05.2012 01:58 5,5 C 83 % 0,0 l/m 0,0 km/h (0 Bft) S 180 2,8 C 2,8 C 0,0 km/h (0 Bft)
08.05.2012 02:00 5,5 C 83 % 0,0 l/m 0,0 km/h (0 Bft) S 180 2,8 C 2,7 C 0,0 km/h (0 Bft)
08.05.2012 02:02 5,5 C 83 % 0,0 l/m 0,0 km/h (0 Bft) O-SO 112 2,8 C 2,7 C 0,0 km/h (0 Bft)
08.05.2012 02:04 5,4 C 83 % 0,0 l/m 0,0 km/h (0 Bft) W 270 2,7 C 2,6 C 0,0 km/h (0 Bft)
08.05.2012 02:06 5,3 C 83 % 0,0 l/m 0,0 km/h (0 Bft) W-NW 292 2,7 C 2,6 C 0,0 km/h (0 Bft)
08.05.2012 02:08 5,3 C 83 % 0,0 l/m 0,0 km/h (0 Bft) W-NW 292 2,7 C 2,6 C 0,0 km/h (0 Bft)
08.05.2012 02:10 5,2 C 83 % 0,0 l/m 0,0 km/h (0 Bft) N-NO 22 2,6 C 2,5 C 0,0 km/h (0 Bft)
08.05.2012 02:12 5,2 C 83 % 0,0 l/m 0,0 km/h (0 Bft) N-NO 22 2,6 C 2,5 C 0,0 km/h (0 Bft)
08.05.2012 02:14 5,2 C 83 % 0,0 l/m 0,0 km/h (0 Bft) W-NW 292 2,6 C 2,4 C 0,0 km/h (0 Bft)
08.05.2012 02:16 5,3 C 83 % 0,0 l/m 0,0 km/h (0 Bft) W-NW 292 2,7 C 2,4 C 0,0 km/h (0 Bft)
08.05.2012 02:18 5,2 C 83 % 0,0 l/m 0,0 km/h (0 Bft) NW 315 2,6 C 2,4 C 0,0 km/h (0 Bft)
08.05.2012 02:20 5,1 C 83 % 0,0 l/m 0,0 km/h (0 Bft) W-NW 292 2,5 C 2,4 C 0,0 km/h (0 Bft)
08.05.2012 02:22 5,1 C 84 % 0,0 l/m 0,2 km/h (0 Bft) W-NW 292 2,6 C 2,5 C 0,0 km/h (0 Bft)
08.05.2012 02:24 5,1 C 84 % 0,0 l/m 0,2 km/h (0 Bft) NW 315 2,6 C 2,6 C 0,0 km/h (0 Bft)
08.05.2012 02:26 5,1 C 84 % 0,0 l/m 0,2 km/h (0 Bft) NO 45 2,6 C 2,6 C 0,0 km/h (0 Bft)
08.05.2012 02:28 5,0 C 84 % 0,0 l/m 0,2 km/h (0 Bft) NO 45 2,5 C 2,6 C 1,6 km/h (1 Bft)
08.05.2012 02:30 5,1 C 84 % 0,0 l/m 0,2 km/h (0 Bft) S 180 2,6 C 2,6 C 1,6 km/h (1 Bft)
08.05.2012 02:32 5,0 C 84 % 0,0 l/m 0,2 km/h (0 Bft) S 180 2,5 C 2,6 C 0,0 km/h (0 Bft)
08.05.2012 02:34 5,1 C 84 % 0,0 l/m 0,0 km/h (0 Bft) S 180 2,6 C 2,6 C 0,0 km/h (0 Bft)
08.05.2012 02:36 5,1 C 84 % 0,0 l/m 0,0 km/h (0 Bft) W 270 2,6 C 2,5 C 0,0 km/h (0 Bft)
08.05.2012 02:38 5,1 C 84 % 0,0 l/m 0,2 km/h (0 Bft) N-NO 22 2,6 C 2,4 C 0,0 km/h (0 Bft)
08.05.2012 02:40 5,1 C 84 % 0,0 l/m 0,2 km/h (0 Bft) O 90 2,6 C 2,4 C 0,0 km/h (0 Bft)
08.05.2012 02:42 5,0 C 84 % 0,0 l/m 0,2 km/h (0 Bft) W-NW 292 2,5 C 2,4 C 0,0 km/h (0 Bft)
08.05.2012 02:44 5,1 C 84 % 0,0 l/m 0,2 km/h (0 Bft) W-NW 292 2,6 C 2,4 C 0,0 km/h (0 Bft)
08.05.2012 02:46 5,1 C 84 % 0,0 l/m 0,2 km/h (0 Bft) S 180 2,6 C 2,4 C 0,0 km/h (0 Bft)
08.05.2012 02:48 5,0 C 84 % 0,0 l/m 0,2 km/h (0 Bft) W-NW 292 2,5 C 2,4 C 0,0 km/h (0 Bft)
08.05.2012 02:50 5,0 C 84 % 0,0 l/m 0,2 km/h (0 Bft) W-NW 292 2,5 C 2,4 C 0,0 km/h (0 Bft)
08.05.2012 02:52 4,9 C 84 % 0,0 l/m 0,0 km/h (0 Bft) W-NW 292 2,4 C 2,4 C 0,0 km/h (0 Bft)
08.05.2012 02:54 4,9 C 84 % 0,0 l/m 0,0 km/h (0 Bft) W-NW 292 2,4 C 2,4 C 0,0 km/h (0 Bft)
08.05.2012 02:56 4,8 C 84 % 0,0 l/m 0,0 km/h (0 Bft) N-NW 337 2,3 C 2,3 C 0,0 km/h (0 Bft)
08.05.2012 02:58 4,8 C 84 % 0,0 l/m 0,0 km/h (0 Bft) W-NW 292 2,3 C 2,3 C 0,0 km/h (0 Bft)
08.05.2012 03:00 4,8 C 84 % 0,0 l/m 0,0 km/h (0 Bft) N 360 2,3 C 2,3 C 0,0 km/h (0 Bft)
08.05.2012 03:02 4,8 C 85 % 0,0 l/m 0,0 km/h (0 Bft) N 360 2,5 C 2,3 C 0,0 km/h (0 Bft)
08.05.2012 03:04 4,9 C 85 % 0,0 l/m 0,0 km/h (0 Bft) N 360 2,6 C 2,3 C 0,0 km/h (0 Bft)
08.05.2012 03:06 4,8 C 85 % 0,0 l/m 0,0 km/h (0 Bft) NO 45 2,5 C 2,3 C 0,0 km/h (0 Bft)
08.05.2012 03:08 4,8 C 85 % 0,0 l/m 0,0 km/h (0 Bft) N-NO 22 2,5 C 2,3 C 0,0 km/h (0 Bft)
08.05.2012 03:10 4,9 C 85 % 0,0 l/m 0,0 km/h (0 Bft) O-SO 112 2,6 C 2,4 C 0,0 km/h (0 Bft)
08.05.2012 03:12 4,9 C 85 % 0,0 l/m 0,0 km/h (0 Bft) W-NW 292 2,6 C 2,4 C 0,0 km/h (0 Bft)
08.05.2012 03:14 4,8 C 85 % 0,0 l/m 0,0 km/h (0 Bft) O-NO 67 2,5 C 2,4 C 0,0 km/h (0 Bft)
08.05.2012 03:16 4,8 C 85 % 0,0 l/m 0,0 km/h (0 Bft) N-NO 22 2,5 C 2,4 C 0,0 km/h (0 Bft)
08.05.2012 03:18 4,8 C 85 % 0,0 l/m 0,0 km/h (0 Bft) W 270 2,5 C 2,4 C 0,0 km/h (0 Bft)
08.05.2012 03:20 4,8 C 85 % 0,0 l/m 0,0 km/h (0 Bft) N-NW 337 2,5 C 2,4 C 0,0 km/h (0 Bft)
08.05.2012 03:22 4,8 C 85 % 0,0 l/m 0,0 km/h (0 Bft) N-NO 22 2,5 C 2,4 C 0,0 km/h (0 Bft)
08.05.2012 03:24 4,7 C 85 % 0,0 l/m 0,0 km/h (0 Bft) W-NW 292 2,4 C 2,4 C 0,0 km/h (0 Bft)
08.05.2012 03:26 4,7 C 85 % 0,0 l/m 0,0 km/h (0 Bft) W-NW 292 2,4 C 2,3 C 0,0 km/h (0 Bft)
08.05.2012 03:28 4,6 C 85 % 0,0 l/m 0,0 km/h (0 Bft) W-NW 292 2,3 C 2,3 C 0,0 km/h (0 Bft)
08.05.2012 03:30 4,7 C 85 % 0,0 l/m 0,0 km/h (0 Bft) W-NW 292 2,4 C 2,3 C 0,0 km/h (0 Bft)
08.05.2012 03:32 4,7 C 85 % 0,0 l/m 0,0 km/h (0 Bft) W-SW 247 2,4 C 2,4 C 0,0 km/h (0 Bft)
08.05.2012 03:34 4,6 C 85 % 0,0 l/m 0,0 km/h (0 Bft) W 270 2,3 C 2,4 C 0,0 km/h (0 Bft)
08.05.2012 03:36 4,6 C 85 % 0,0 l/m 0,0 km/h (0 Bft) NO 45 2,3 C 2,3 C 0,0 km/h (0 Bft)
08.05.2012 03:38 4,5 C 85 % 0,0 l/m 0,0 km/h (0 Bft) SO 135 2,2 C 2,2 C 0,0 km/h (0 Bft)
08.05.2012 03:40 4,5 C 85 % 0,0 l/m 0,0 km/h (0 Bft) O 90 2,2 C 2,1 C 0,0 km/h (0 Bft)
08.05.2012 03:42 4,5 C 85 % 0,0 l/m 0,0 km/h (0 Bft) S 180 2,2 C 2,1 C 0,0 km/h (0 Bft)
08.05.2012 03:44 4,5 C 85 % 0,0 l/m 0,0 km/h (0 Bft) S 180 2,2 C 2,0 C 0,0 km/h (0 Bft)
08.05.2012 03:46 4,5 C 85 % 0,0 l/m 0,0 km/h (0 Bft) S 180 2,2 C 2,0 C 0,0 km/h (0 Bft)
08.05.2012 03:48 4,5 C 85 % 0,0 l/m 0,0 km/h (0 Bft) S 180 2,2 C 1,9 C 0,0 km/h (0 Bft)
08.05.2012 03:50 4,5 C 85 % 0,0 l/m 0,0 km/h (0 Bft) S 180 2,2 C 1,9 C 0,0 km/h (0 Bft)
08.05.2012 03:52 4,4 C 85 % 0,0 l/m 0,0 km/h (0 Bft) SO 135 2,1 C 1,9 C 0,0 km/h (0 Bft)
08.05.2012 03:54 4,4 C 85 % 0,0 l/m 0,0 km/h (0 Bft) S-SO 157 2,1 C 1,8 C 0,0 km/h (0 Bft)
08.05.2012 03:56 4,5 C 85 % 0,0 l/m 0,0 km/h (0 Bft) SO 135 2,2 C 1,8 C 0,0 km/h (0 Bft)
08.05.2012 03:58 4,4 C 85 % 0,0 l/m 0,0 km/h (0 Bft) S 180 2,1 C 1,9 C 0,0 km/h (0 Bft)
08.05.2012 04:00 4,4 C 85 % 0,0 l/m 0,0 km/h (0 Bft) S-SO 157 2,1 C 1,9 C 0,0 km/h (0 Bft)
08.05.2012 04:02 4,3 C 85 % 0,0 l/m 0,0 km/h (0 Bft) N-NO 22 2,0 C 1,9 C 0,0 km/h (0 Bft)
08.05.2012 04:04 4,3 C 85 % 0,0 l/m 0,0 km/h (0 Bft) O-SO 112 2,0 C 1,9 C 0,0 km/h (0 Bft)
08.05.2012 04:06 4,3 C 85 % 0,0 l/m 0,0 km/h (0 Bft) W-NW 292 2,0 C 1,9 C 0,0 km/h (0 Bft)
08.05.2012 04:08 4,3 C 85 % 0,0 l/m 0,0 km/h (0 Bft) O 90 2,0 C 1,9 C 0,0 km/h (0 Bft)
08.05.2012 04:10 4,2 C 85 % 0,0 l/m 0,0 km/h (0 Bft) S-SO 157 1,9 C 1,9 C 0,0 km/h (0 Bft)
08.05.2012 04:12 4,2 C 85 % 0,0 l/m 0,0 km/h (0 Bft) O-SO 112 1,9 C 1,9 C 0,0 km/h (0 Bft)
08.05.2012 04:14 4,2 C 85 % 0,0 l/m 0,0 km/h (0 Bft) N 360 1,9 C 1,9 C 0,0 km/h (0 Bft)
08.05.2012 04:16 4,3 C 85 % 0,0 l/m 0,0 km/h (0 Bft) O 90 2,0 C 1,9 C 0,0 km/h (0 Bft)
08.05.2012 04:18 4,2 C 85 % 0,0 l/m 0,0 km/h (0 Bft) O 90 1,9 C 1,9 C 0,0 km/h (0 Bft)
08.05.2012 04:20 4,3 C 86 % 0,0 l/m 0,0 km/h (0 Bft) NO 45 2,2 C 1,9 C 0,0 km/h (0 Bft)
08.05.2012 04:22 4,3 C 86 % 0,0 l/m 0,0 km/h (0 Bft) NW 315 2,2 C 1,9 C 0,0 km/h (0 Bft)
08.05.2012 04:24 4,2 C 85 % 0,0 l/m 0,0 km/h (0 Bft) SO 135 1,9 C 2,0 C 0,0 km/h (0 Bft)
08.05.2012 04:26 4,3 C 85 % 0,0 l/m 0,0 km/h (0 Bft) O 90 2,0 C 1,9 C 0,0 km/h (0 Bft)
08.05.2012 04:28 4,3 C 85 % 0,0 l/m 0,0 km/h (0 Bft) SO 135 2,0 C 2,0 C 0,0 km/h (0 Bft)
08.05.2012 04:30 4,2 C 85 % 0,0 l/m 0,0 km/h (0 Bft) NO 45 1,9 C 2,0 C 0,0 km/h (0 Bft)
08.05.2012 04:32 4,2 C 86 % 0,0 l/m 0,0 km/h (0 Bft) N-NW 337 2,1 C 2,0 C 0,0 km/h (0 Bft)
08.05.2012 04:34 4,3 C 86 % 0,0 l/m 0,0 km/h (0 Bft) W-NW 292 2,2 C 2,1 C 0,0 km/h (0 Bft)
08.05.2012 04:36 4,3 C 86 % 0,0 l/m 0,0 km/h (0 Bft) N-NW 337 2,2 C 2,1 C 0,0 km/h (0 Bft)
08.05.2012 04:38 4,2 C 86 % 0,0 l/m 0,0 km/h (0 Bft) NW 315 2,1 C 2,1 C 0,0 km/h (0 Bft)
08.05.2012 04:40 4,3 C 86 % 0,0 l/m 0,0 km/h (0 Bft) N-NO 22 2,2 C 2,1 C 0,0 km/h (0 Bft)
08.05.2012 04:42 4,3 C 86 % 0,0 l/m 0,0 km/h (0 Bft) N-NO 22 2,2 C 2,0 C 0,0 km/h (0 Bft)
08.05.2012 04:44 4,2 C 86 % 0,0 l/m 0,0 km/h (0 Bft) N-NW 337 2,1 C 2,0 C 0,0 km/h (0 Bft)
08.05.2012 04:46 4,2 C 86 % 0,0 l/m 0,0 km/h (0 Bft) N-NW 337 2,1 C 2,0 C 0,0 km/h (0 Bft)
08.05.2012 04:48 4,2 C 86 % 0,0 l/m 0,0 km/h (0 Bft) N-NO 22 2,1 C 2,0 C 0,0 km/h (0 Bft)
08.05.2012 04:50 4,3 C 86 % 0,0 l/m 0,0 km/h (0 Bft) N-NO 22 2,2 C 2,0 C 0,0 km/h (0 Bft)
08.05.2012 04:52 4,3 C 86 % 0,0 l/m 0,0 km/h (0 Bft) N-NO 22 2,2 C 2,0 C 0,0 km/h (0 Bft)
08.05.2012 04:54 4,2 C 86 % 0,0 l/m 0,0 km/h (0 Bft) N 360 2,1 C 2,0 C 0,0 km/h (0 Bft)
08.05.2012 04:56 4,2 C 86 % 0,0 l/m 0,0 km/h (0 Bft) N-NW 337 2,1 C 2,0 C 0,0 km/h (0 Bft)
08.05.2012 04:58 4,3 C 86 % 0,0 l/m 0,0 km/h (0 Bft) NW 315 2,2 C 1,9 C 0,0 km/h (0 Bft)
08.05.2012 05:00 4,2 C 86 % 0,0 l/m 0,0 km/h (0 Bft) NW 315 2,1 C 1,9 C 0,0 km/h (0 Bft)
08.05.2012 05:02 4,1 C 85 % 0,0 l/m 0,0 km/h (0 Bft) W 270 1,8 C 1,8 C 0,0 km/h (0 Bft)
08.05.2012 05:04 4,1 C 85 % 0,0 l/m 0,0 km/h (0 Bft) NW 315 1,8 C 1,9 C 0,0 km/h (0 Bft)
08.05.2012 05:06 4,1 C 85 % 0,0 l/m 0,0 km/h (0 Bft) N-NO 22 1,8 C 1,9 C 0,0 km/h (0 Bft)
08.05.2012 05:08 4,1 C 85 % 0,0 l/m 0,0 km/h (0 Bft) W-SW 247 1,8 C 1,9 C 0,0 km/h (0 Bft)
08.05.2012 05:10 4,2 C 86 % 0,0 l/m 0,0 km/h (0 Bft) W-NW 292 2,1 C 1,9 C 0,0 km/h (0 Bft)
08.05.2012 05:12 4,1 C 85 % 0,0 l/m 0,0 km/h (0 Bft) SO 135 1,8 C 1,8 C 0,0 km/h (0 Bft)
08.05.2012 05:14 4,1 C 85 % 0,0 l/m 0,0 km/h (0 Bft) W-NW 292 1,8 C 1,8 C 0,0 km/h (0 Bft)
08.05.2012 05:16 4,0 C 85 % 0,0 l/m 0,0 km/h (0 Bft) N 360 1,7 C 1,9 C 0,0 km/h (0 Bft)
08.05.2012 05:18 4,0 C 85 % 0,0 l/m 0,0 km/h (0 Bft) N-NW 337 1,7 C 1,8 C 0,0 km/h (0 Bft)
08.05.2012 05:20 4,0 C 85 % 0,0 l/m 0,0 km/h (0 Bft) NW 315 1,7 C 1,8 C 0,0 km/h (0 Bft)
08.05.2012 05:22 4,0 C 85 % 0,0 l/m 0,0 km/h (0 Bft) N 360 1,7 C 1,8 C 0,0 km/h (0 Bft)
08.05.2012 05:24 4,0 C 85 % 0,0 l/m 0,0 km/h (0 Bft) N-NO 22 1,7 C 1,8 C 0,0 km/h (0 Bft)
08.05.2012 05:26 4,1 C 85 % 0,0 l/m 0,0 km/h (0 Bft) N 360 1,8 C 1,9 C 0,0 km/h (0 Bft)
08.05.2012 05:28 4,2 C 86 % 0,0 l/m 0,0 km/h (0 Bft) O-SO 112 2,1 C 2,0 C 0,0 km/h (0 Bft)
08.05.2012 05:30 4,2 C 86 % 0,0 l/m 0,0 km/h (0 Bft) O 90 2,1 C 2,1 C 0,0 km/h (0 Bft)
08.05.2012 05:32 4,2 C 86 % 0,0 l/m 0,0 km/h (0 Bft) W-SW 247 2,1 C 2,2 C 0,0 km/h (0 Bft)
08.05.2012 05:34 4,3 C 86 % 0,0 l/m 0,0 km/h (0 Bft) S 180 2,2 C 2,3 C 0,0 km/h (0 Bft)
08.05.2012 05:36 4,3 C 86 % 0,0 l/m 0,0 km/h (0 Bft) S-SW 202 2,2 C 2,3 C 0,0 km/h (0 Bft)
08.05.2012 05:38 4,2 C 86 % 0,0 l/m 0,0 km/h (0 Bft) W-SW 247 2,1 C 2,4 C 0,0 km/h (0 Bft)
08.05.2012 05:40 4,3 C 86 % 0,0 l/m 0,0 km/h (0 Bft) S-SW 202 2,2 C 2,4 C 0,0 km/h (0 Bft)
08.05.2012 05:42 4,3 C 86 % 0,0 l/m 0,0 km/h (0 Bft) W-NW 292 2,2 C 2,4 C 0,0 km/h (0 Bft)
08.05.2012 05:44 4,3 C 86 % 0,0 l/m 0,0 km/h (0 Bft) N-NW 337 2,2 C 2,4 C 0,0 km/h (0 Bft)
08.05.2012 05:46 4,3 C 86 % 0,0 l/m 0,0 km/h (0 Bft) N-NW 337 2,2 C 2,4 C 0,0 km/h (0 Bft)
08.05.2012 05:48 4,3 C 86 % 0,0 l/m 0,0 km/h (0 Bft) W-NW 292 2,2 C 2,4 C 0,0 km/h (0 Bft)
08.05.2012 05:50 4,3 C 86 % 0,0 l/m 0,0 km/h (0 Bft) N-NW 337 2,2 C 2,4 C 0,0 km/h (0 Bft)
08.05.2012 05:52 4,3 C 86 % 0,0 l/m 0,0 km/h (0 Bft) W-SW 247 2,2 C 2,4 C 0,0 km/h (0 Bft)
08.05.2012 05:54 4,3 C 86 % 0,0 l/m 0,0 km/h (0 Bft) N-NW 337 2,2 C 2,4 C 0,0 km/h (0 Bft)
08.05.2012 05:56 4,3 C 86 % 0,0 l/m 0,0 km/h (0 Bft) N-NW 337 2,2 C 2,4 C 0,0 km/h (0 Bft)
08.05.2012 05:58 4,3 C 86 % 0,0 l/m 0,0 km/h (0 Bft) N 360 2,2 C 2,4 C 0,0 km/h (0 Bft)
08.05.2012 06:00 4,3 C 86 % 0,0 l/m 0,0 km/h (0 Bft) N-NW 337 2,2 C 2,4 C 0,0 km/h (0 Bft)
08.05.2012 06:02 4,4 C 86 % 0,0 l/m 0,0 km/h (0 Bft) N-NW 337 2,3 C 2,4 C 0,0 km/h (0 Bft)
08.05.2012 06:04 4,4 C 86 % 0,0 l/m 0,0 km/h (0 Bft) NW 315 2,3 C 2,5 C 0,0 km/h (0 Bft)
08.05.2012 06:06 4,4 C 86 % 0,0 l/m 0,0 km/h (0 Bft) W-NW 292 2,3 C 2,6 C 0,0 km/h (0 Bft)
08.05.2012 06:08 4,5 C 86 % 0,0 l/m 0,0 km/h (0 Bft) N-NW 337 2,4 C 2,7 C 0,0 km/h (0 Bft)
08.05.2012 06:10 4,6 C 86 % 0,0 l/m 0,0 km/h (0 Bft) N 360 2,5 C 2,8 C 0,0 km/h (0 Bft)
08.05.2012 06:12 4,6 C 86 % 0,0 l/m 0,0 km/h (0 Bft) N 360 2,5 C 2,9 C 0,0 km/h (0 Bft)
08.05.2012 06:14 4,7 C 86 % 0,0 l/m 0,0 km/h (0 Bft) N-NW 337 2,6 C 2,9 C 0,0 km/h (0 Bft)
08.05.2012 06:16 4,8 C 86 % 0,0 l/m 0,0 km/h (0 Bft) W-SW 247 2,7 C 3,1 C 0,0 km/h (0 Bft)
08.05.2012 06:18 4,8 C 86 % 0,0 l/m 0,0 km/h (0 Bft) O 90 2,7 C 3,1 C 0,0 km/h (0 Bft)
08.05.2012 06:20 4,8 C 87 % 0,0 l/m 0,0 km/h (0 Bft) S-SW 202 2,8 C 3,3 C 0,0 km/h (0 Bft)
08.05.2012 06:22 5,1 C 86 % 0,0 l/m 0,0 km/h (0 Bft) O-SO 112 3,0 C 3,4 C 0,0 km/h (0 Bft)
08.05.2012 06:24 5,3 C 87 % 0,0 l/m 0,2 km/h (0 Bft) S 180 3,3 C 3,6 C 1,6 km/h (1 Bft)
08.05.2012 06:26 5,5 C 87 % 0,0 l/m 0,2 km/h (0 Bft) SO 135 3,5 C 3,9 C 1,6 km/h (1 Bft)
08.05.2012 06:28 5,6 C 87 % 0,0 l/m 0,2 km/h (0 Bft) S 180 3,6 C 4,4 C 0,0 km/h (0 Bft)
08.05.2012 06:30 5,9 C 87 % 0,0 l/m 0,2 km/h (0 Bft) S-SW 202 3,9 C 4,6 C 0,0 km/h (0 Bft)
08.05.2012 06:32 6,3 C 87 % 0,0 l/m 0,2 km/h (0 Bft) W-NW 292 4,3 C 4,8 C 0,0 km/h (0 Bft)
08.05.2012 06:34 6,4 C 87 % 0,0 l/m 0,2 km/h (0 Bft) W 270 4,4 C 5,1 C 0,0 km/h (0 Bft)
08.05.2012 06:36 7,1 C 86 % 0,0 l/m 0,0 km/h (0 Bft) W 270 4,9 C 5,4 C 0,0 km/h (0 Bft)
08.05.2012 06:38 7,3 C 87 % 0,0 l/m 0,0 km/h (0 Bft) S-SW 202 5,3 C 6,0 C 0,0 km/h (0 Bft)
08.05.2012 06:40 8,0 C 86 % 0,0 l/m 0,0 km/h (0 Bft) N-NO 22 5,8 C 6,6 C 0,0 km/h (0 Bft)
08.05.2012 06:42 8,4 C 85 % 0,0 l/m 0,0 km/h (0 Bft) O-NO 67 6,0 C 6,9 C 0,0 km/h (0 Bft)
08.05.2012 06:44 8,9 C 84 % 0,0 l/m 0,0 km/h (0 Bft) S-SW 202 6,3 C 7,5 C 2,3 km/h (1 Bft)
08.05.2012 06:46 9,2 C 84 % 0,0 l/m 0,2 km/h (0 Bft) S-SW 202 6,6 C 7,8 C 2,3 km/h (1 Bft)
08.05.2012 06:48 9,4 C 83 % 0,0 l/m 0,2 km/h (0 Bft) S 180 6,7 C 8,1 C 2,7 km/h (1 Bft)
08.05.2012 06:50 9,2 C 82 % 0,0 l/m 0,2 km/h (0 Bft) O-SO 112 6,3 C 8,5 C 2,7 km/h (1 Bft)
08.05.2012 06:52 9,0 C 81 % 0,0 l/m 0,2 km/h (0 Bft) S 180 5,9 C 8,8 C 0,0 km/h (0 Bft)
08.05.2012 06:54 8,8 C 80 % 0,0 l/m 0,6 km/h (0 Bft) S 180 5,5 C 9,0 C 4,7 km/h (1 Bft)
08.05.2012 06:56 8,8 C 80 % 0,0 l/m 1,0 km/h (0 Bft) W-NW 292 5,5 C 9,0 C 4,7 km/h (1 Bft)
08.05.2012 06:58 8,7 C 80 % 0,0 l/m 1,1 km/h (1 Bft) N 360 5,4 C 9,0 C 0,0 km/h (0 Bft)
08.05.2012 07:00 9,2 C 80 % 0,0 l/m 1,3 km/h (1 Bft) W-NW 292 5,9 C 9,3 C 1,8 km/h (1 Bft)
08.05.2012 07:02 10,0 C 80 % 0,0 l/m 1,6 km/h (1 Bft) W 270 6,7 C 9,5 C 1,8 km/h (1 Bft)
08.05.2012 07:04 10,7 C 77 % 0,0 l/m 1,4 km/h (1 Bft) N-NW 337 6,8 C 9,7 C 0,0 km/h (0 Bft)
08.05.2012 07:06 11,0 C 77 % 0,0 l/m 0,6 km/h (0 Bft) S 180 7,1 C 10,1 C 4,8 km/h (1 Bft)
08.05.2012 07:08 11,7 C 77 % 0,0 l/m 0,6 km/h (0 Bft) W-SW 247 7,8 C 10,5 C 0,0 km/h (0 Bft)
08.05.2012 07:10 12,3 C 75 % 0,0 l/m 0,5 km/h (0 Bft) W-SW 247 8,0 C 11,0 C 0,0 km/h (0 Bft)
08.05.2012 07:12 12,8 C 74 % 0,0 l/m 0,2 km/h (0 Bft) S 180 8,3 C 11,6 C 0,0 km/h (0 Bft)
08.05.2012 07:14 13,3 C 73 % 0,0 l/m 0,0 km/h (0 Bft) W-NW 292 8,6 C 12,1 C 0,0 km/h (0 Bft)
08.05.2012 07:16 13,6 C 71 % 0,0 l/m 0,0 km/h (0 Bft) S-SW 202 8,4 C 12,4 C 0,0 km/h (0 Bft)
08.05.2012 07:18 14,0 C 70 % 0,0 l/m 0,0 km/h (0 Bft) W 270 8,6 C 12,7 C 0,0 km/h (0 Bft)
08.05.2012 07:20 14,4 C 68 % 0,0 l/m 0,0 km/h (0 Bft) SO 135 8,6 C 12,9 C 0,0 km/h (0 Bft)
08.05.2012 07:22 14,5 C 68 % 0,0 l/m 0,0 km/h (0 Bft) N-NO 22 8,7 C 13,2 C 0,0 km/h (0 Bft)
08.05.2012 07:24 14,9 C 66 % 0,0 l/m 0,0 km/h (0 Bft) W-NW 292 8,6 C 13,7 C 0,0 km/h (0 Bft)
08.05.2012 07:26 15,2 C 66 % 0,0 l/m 0,0 km/h (0 Bft) NO 45 8,9 C 13,9 C 0,0 km/h (0 Bft)
08.05.2012 07:28 15,5 C 65 % 0,0 l/m 0,0 km/h (0 Bft) S 180 8,9 C 14,3 C 0,0 km/h (0 Bft)
08.05.2012 07:30 15,9 C 64 % 0,0 l/m 0,0 km/h (0 Bft) S-SW 202 9,1 C 14,5 C 0,0 km/h (0 Bft)
08.05.2012 07:32 16,4 C 63 % 0,0 l/m 0,0 km/h (0 Bft) W 270 9,3 C 15,0 C 0,0 km/h (0 Bft)
08.05.2012 07:34 16,4 C 62 % 0,0 l/m 0,0 km/h (0 Bft) N-NO 22 9,1 C 15,4 C 0,0 km/h (0 Bft)
08.05.2012 07:36 16,5 C 60 % 0,0 l/m 0,0 km/h (0 Bft) N 360 8,7 C 15,5 C 0,0 km/h (0 Bft)
08.05.2012 07:38 16,7 C 59 % 0,0 l/m 0,2 km/h (0 Bft) N-NO 22 8,6 C 15,8 C 2,4 km/h (1 Bft)
08.05.2012 07:40 16,7 C 58 % 0,0 l/m 0,2 km/h (0 Bft) N-NO 22 8,4 C 15,9 C 2,4 km/h (1 Bft)
08.05.2012 07:42 16,9 C 59 % 0,0 l/m 0,3 km/h (0 Bft) N-NW 337 8,8 C 16,0 C 3,1 km/h (1 Bft)
08.05.2012 07:44 17,2 C 59 % 0,0 l/m 0,5 km/h (0 Bft) S 180 9,1 C 16,2 C 3,1 km/h (1 Bft)
08.05.2012 07:46 17,4 C 59 % 0,0 l/m 0,5 km/h (0 Bft) W-SW 247 9,3 C 16,3 C 0,0 km/h (0 Bft)
08.05.2012 07:48 17,8 C 58 % 0,0 l/m 0,6 km/h (0 Bft) N-NW 337 9,4 C 16,6 C 1,8 km/h (1 Bft)
08.05.2012 07:50 18,3 C 58 % 0,0 l/m 0,3 km/h (0 Bft) S 180 9,9 C 16,8 C 0,0 km/h (0 Bft)
08.05.2012 07:52 18,7 C 57 % 0,0 l/m 0,6 km/h (0 Bft) O-NO 67 10,0 C 17,0 C 3,2 km/h (1 Bft)
08.05.2012 07:54 18,8 C 56 % 0,0 l/m 0,5 km/h (0 Bft) W-SW 247 9,8 C 17,3 C 3,2 km/h (1 Bft)
08.05.2012 07:56 19,1 C 56 % 0,0 l/m 1,0 km/h (0 Bft) SO 135 10,1 C 17,5 C 3,4 km/h (1 Bft)
08.05.2012 07:58 19,5 C 54 % 0,0 l/m 1,6 km/h (1 Bft) SO 135 9,9 C 17,6 C 5,5 km/h (1 Bft)
08.05.2012 08:00 19,8 C 53 % 0,0 l/m 2,1 km/h (1 Bft) SO 135 9,9 C 17,6 C 5,5 km/h (1 Bft)
08.05.2012 08:02 20,0 C 52 % 0,0 l/m 2,7 km/h (1 Bft) O-SO 112 9,8 C 17,7 C 5,1 km/h (1 Bft)
08.05.2012 08:04 20,3 C 51 % 0,0 l/m 3,4 km/h (1 Bft) SO 135 9,8 C 17,7 C 6,6 km/h (2 Bft)
08.05.2012 08:06 20,5 C 51 % 0,0 l/m 3,9 km/h (1 Bft) S-SO 157 10,0 C 17,7 C 6,6 km/h (2 Bft)
08.05.2012 08:08 20,8 C 50 % 0,0 l/m 4,0 km/h (1 Bft) S 180 10,0 C 17,8 C 5,1 km/h (1 Bft)
08.05.2012 08:10 21,0 C 49 % 0,0 l/m 4,0 km/h (1 Bft) SO 135 9,9 C 17,8 C 5,1 km/h (1 Bft)
08.05.2012 08:12 21,1 C 48 % 0,0 l/m 4,2 km/h (1 Bft) O-SO 112 9,7 C 17,9 C 5,6 km/h (1 Bft)
08.05.2012 08:14 21,2 C 48 % 0,0 l/m 3,9 km/h (1 Bft) SO 135 9,7 C 18,0 C 5,6 km/h (1 Bft)
08.05.2012 08:16 20,9 C 47 % 0,0 l/m 3,5 km/h (1 Bft) SO 135 9,2 C 18,3 C 3,9 km/h (1 Bft)
08.05.2012 08:18 20,6 C 48 % 0,0 l/m 3,1 km/h (1 Bft) S-SO 157 9,2 C 18,4 C 3,9 km/h (1 Bft)
08.05.2012 08:20 20,3 C 50 % 0,0 l/m 2,6 km/h (1 Bft) O-SO 112 9,5 C 18,5 C 2,6 km/h (1 Bft)
08.05.2012 08:22 19,9 C 50 % 0,0 l/m 2,3 km/h (1 Bft) SO 135 9,2 C 18,8 C 2,6 km/h (1 Bft)
08.05.2012 08:24 19,4 C 52 % 0,0 l/m 1,9 km/h (1 Bft) N 360 9,3 C 19,0 C 3,2 km/h (1 Bft)
08.05.2012 08:26 19,1 C 50 % 0,0 l/m 1,6 km/h (1 Bft) S-SW 202 8,4 C 19,0 C 3,2 km/h (1 Bft)
08.05.2012 08:28 18,8 C 51 % 0,0 l/m 1,1 km/h (1 Bft) S-SO 157 8,4 C 19,1 C 0,0 km/h (0 Bft)
08.05.2012 08:30 18,6 C 51 % 0,0 l/m 1,0 km/h (0 Bft) O-NO 67 8,3 C 19,3 C 0,0 km/h (0 Bft)
08.05.2012 08:32 18,7 C 51 % 0,0 l/m 0,8 km/h (0 Bft) N-NO 22 8,4 C 19,4 C 0,0 km/h (0 Bft)
08.05.2012 08:34 18,3 C 51 % 0,0 l/m 0,6 km/h (0 Bft) O-SO 112 8,0 C 19,6 C 0,0 km/h (0 Bft)
08.05.2012 08:36 18,1 C 52 % 0,0 l/m 0,3 km/h (0 Bft) O-SO 112 8,1 C 19,7 C 2,6 km/h (1 Bft)
08.05.2012 08:38 18,0 C 50 % 0,0 l/m 0,3 km/h (0 Bft) NW 315 7,4 C 19,8 C 2,6 km/h (1 Bft)
08.05.2012 08:40 17,6 C 51 % 0,0 l/m 0,3 km/h (0 Bft) W-NW 292 7,3 C 19,8 C 0,0 km/h (0 Bft)
08.05.2012 08:42 17,6 C 51 % 0,0 l/m 0,3 km/h (0 Bft) O-SO 112 7,3 C 19,7 C 0,0 km/h (0 Bft)
08.05.2012 08:44 17,7 C 53 % 0,0 l/m 0,6 km/h (0 Bft) S 180 8,0 C 19,7 C 0,0 km/h (0 Bft)
08.05.2012 08:46 17,7 C 54 % 0,0 l/m 0,5 km/h (0 Bft) S-SO 157 8,3 C 20,0 C 0,0 km/h (0 Bft)
08.05.2012 08:48 17,6 C 54 % 0,0 l/m 0,5 km/h (0 Bft) NO 45 8,2 C 20,4 C 0,0 km/h (0 Bft)
08.05.2012 08:50 17,6 C 54 % 0,0 l/m 0,3 km/h (0 Bft) W-SW 247 8,2 C 20,6 C 0,0 km/h (0 Bft)
08.05.2012 08:52 17,6 C 55 % 0,0 l/m 0,3 km/h (0 Bft) NO 45 8,5 C 20,7 C 0,0 km/h (0 Bft)
08.05.2012 08:54 17,6 C 54 % 0,0 l/m 0,2 km/h (0 Bft) SO 135 8,2 C 20,8 C 0,0 km/h (0 Bft)
08.05.2012 08:56 17,6 C 53 % 0,0 l/m 0,2 km/h (0 Bft) O-SO 112 7,9 C 20,9 C 0,0 km/h (0 Bft)
08.05.2012 08:58 17,5 C 53 % 0,0 l/m 0,2 km/h (0 Bft) O-SO 112 7,8 C 21,0 C 1,6 km/h (1 Bft)
08.05.2012 09:00 17,7 C 53 % 0,0 l/m 0,2 km/h (0 Bft) SW 225 8,0 C 21,0 C 1,6 km/h (1 Bft)
08.05.2012 09:02 17,6 C 53 % 0,0 l/m 0,2 km/h (0 Bft) O 90 7,9 C 21,3 C 0,0 km/h (0 Bft)
08.05.2012 09:04 17,6 C 53 % 0,0 l/m 0,2 km/h (0 Bft) N-NO 22 7,9 C 21,5 C 0,0 km/h (0 Bft)
08.05.2012 09:06 17,7 C 51 % 0,0 l/m 0,3 km/h (0 Bft) S-SO 157 7,4 C 21,6 C 0,0 km/h (0 Bft)
08.05.2012 09:08 17,7 C 53 % 0,0 l/m 0,5 km/h (0 Bft) W-SW 247 8,0 C 21,8 C 1,6 km/h (1 Bft)
08.05.2012 09:10 17,7 C 53 % 0,0 l/m 0,5 km/h (0 Bft) S-SW 202 8,0 C 22,0 C 1,6 km/h (1 Bft)
08.05.2012 09:12 17,9 C 51 % 0,0 l/m 0,6 km/h (0 Bft) W-NW 292 7,6 C 22,2 C 2,1 km/h (1 Bft)
08.05.2012 09:14 18,0 C 51 % 0,0 l/m 0,8 km/h (0 Bft) W-NW 292 7,7 C 22,2 C 2,1 km/h (1 Bft)
08.05.2012 09:16 18,0 C 50 % 0,0 l/m 1,1 km/h (1 Bft) W 270 7,4 C 22,3 C 4,5 km/h (1 Bft)
08.05.2012 09:18 18,1 C 51 % 0,0 l/m 1,3 km/h (1 Bft) N-NO 22 7,8 C 22,1 C 4,5 km/h (1 Bft)
08.05.2012 09:20 18,2 C 51 % 0,0 l/m 1,3 km/h (1 Bft) S 180 7,9 C 22,1 C 2,3 km/h (1 Bft)
08.05.2012 09:22 18,3 C 50 % 0,0 l/m 1,6 km/h (1 Bft) W-SW 247 7,7 C 22,2 C 2,3 km/h (1 Bft)
08.05.2012 09:24 18,3 C 50 % 0,0 l/m 1,4 km/h (1 Bft) W 270 7,7 C 22,2 C 1,9 km/h (1 Bft)
08.05.2012 09:26 18,4 C 51 % 0,0 l/m 1,3 km/h (1 Bft) W-SW 247 8,1 C 22,3 C 1,9 km/h (1 Bft)
08.05.2012 09:28 18,6 C 51 % 0,0 l/m 0,8 km/h (0 Bft) O-SO 112 8,3 C 22,8 C 3,1 km/h (1 Bft)
08.05.2012 09:30 18,7 C 50 % 0,0 l/m 0,8 km/h (0 Bft) W-SW 247 8,1 C 23,2 C 3,7 km/h (1 Bft)
08.05.2012 09:32 18,8 C 50 % 0,0 l/m 1,0 km/h (0 Bft) S-SW 202 8,2 C 23,3 C 3,9 km/h (1 Bft)
08.05.2012 09:34 18,8 C 49 % 0,0 l/m 1,6 km/h (1 Bft) S 180 7,9 C 23,1 C 3,9 km/h (1 Bft)
08.05.2012 09:36 18,9 C 51 % 0,0 l/m 1,9 km/h (1 Bft) S 180 8,5 C 23,1 C 2,9 km/h (1 Bft)
08.05.2012 09:38 19,0 C 50 % 0,0 l/m 1,9 km/h (1 Bft) S 180 8,3 C 22,9 C 2,9 km/h (1 Bft)
08.05.2012 09:40 19,1 C 51 % 0,0 l/m 2,1 km/h (1 Bft) N 360 8,7 C 23,0 C 1,6 km/h (1 Bft)
08.05.2012 09:42 19,2 C 50 % 0,0 l/m 2,3 km/h (1 Bft) SO 135 8,5 C 23,0 C 4,0 km/h (1 Bft)
08.05.2012 09:44 19,4 C 49 % 0,0 l/m 2,7 km/h (1 Bft) SO 135 8,4 C 22,9 C 6,8 km/h (2 Bft)
08.05.2012 09:46 19,5 C 49 % 0,0 l/m 2,7 km/h (1 Bft) S 180 8,5 C 22,6 C 7,7 km/h (2 Bft)
08.05.2012 09:48 19,5 C 48 % 0,0 l/m 3,1 km/h (1 Bft) S 180 8,2 C 22,4 C 7,6 km/h (2 Bft)
08.05.2012 09:50 19,5 C 49 % 0,0 l/m 3,9 km/h (1 Bft) S 180 8,5 C 22,1 C 7,6 km/h (2 Bft)
08.05.2012 09:52 19,7 C 47 % 0,0 l/m 4,5 km/h (1 Bft) S 180 8,1 C 21,8 C 4,2 km/h (1 Bft)
08.05.2012 09:54 19,7 C 46 % 0,0 l/m 4,3 km/h (1 Bft) S 180 7,8 C 21,7 C 4,2 km/h (1 Bft)
08.05.2012 09:56 19,7 C 45 % 0,0 l/m 4,2 km/h (1 Bft) S 180 7,4 C 21,6 C 5,6 km/h (1 Bft)
08.05.2012 09:58 19,9 C 45 % 0,0 l/m 4,7 km/h (1 Bft) O 90 7,6 C 21,6 C 7,6 km/h (2 Bft)
08.05.2012 10:00 19,8 C 46 % 0,0 l/m 4,2 km/h (1 Bft) S 180 7,8 C 21,5 C 7,6 km/h (2 Bft)
08.05.2012 10:02 19,9 C 44 % 0,0 l/m 4,2 km/h (1 Bft) S 180 7,3 C 21,6 C 4,3 km/h (1 Bft)
08.05.2012 10:04 20,0 C 45 % 0,0 l/m 4,0 km/h (1 Bft) O 90 7,7 C 21,6 C 4,3 km/h (1 Bft)
08.05.2012 10:06 20,2 C 45 % 0,0 l/m 4,3 km/h (1 Bft) O 90 7,9 C 21,7 C 8,7 km/h (2 Bft)
08.05.2012 10:08 20,2 C 45 % 0,0 l/m 4,5 km/h (1 Bft) S 180 7,9 C 21,6 C 5,1 km/h (1 Bft)
08.05.2012 10:10 20,4 C 44 % 0,0 l/m 4,7 km/h (1 Bft) SO 135 7,7 C 21,5 C 4,8 km/h (1 Bft)
08.05.2012 10:12 20,5 C 44 % 0,0 l/m 4,5 km/h (1 Bft) S-SW 202 7,8 C 21,5 C 4,7 km/h (1 Bft)
08.05.2012 10:14 20,6 C 44 % 0,0 l/m 4,2 km/h (1 Bft) O-SO 112 7,9 C 21,8 C 5,3 km/h (1 Bft)
08.05.2012 10:16 20,8 C 44 % 0,0 l/m 4,2 km/h (1 Bft) S 180 8,1 C 22,0 C 9,2 km/h (2 Bft)
08.05.2012 10:18 20,9 C 44 % 0,0 l/m 3,7 km/h (1 Bft) SO 135 8,2 C 22,0 C 3,5 km/h (1 Bft)
08.05.2012 10:20 21,1 C 44 % 0,0 l/m 3,5 km/h (1 Bft) S-SW 202 8,4 C 22,1 C 4,5 km/h (1 Bft)
08.05.2012 10:22 21,1 C 43 % 0,0 l/m 3,4 km/h (1 Bft) W-SW 247 8,0 C 22,0 C 4,5 km/h (1 Bft)
08.05.2012 10:24 21,1 C 42 % 0,0 l/m 3,5 km/h (1 Bft) W 270 7,7 C 22,0 C 3,2 km/h (1 Bft)
08.05.2012 10:26 21,2 C 43 % 0,0 l/m 3,4 km/h (1 Bft) SO 135 8,1 C 22,0 C 6,6 km/h (2 Bft)
08.05.2012 10:28 21,2 C 43 % 0,0 l/m 3,2 km/h (1 Bft) S-SW 202 8,1 C 22,0 C 6,6 km/h (2 Bft)
08.05.2012 10:30 21,5 C 42 % 0,0 l/m 3,4 km/h (1 Bft) S 180 8,0 C 21,9 C 4,2 km/h (1 Bft)
08.05.2012 10:32 21,4 C 41 % 0,0 l/m 3,4 km/h (1 Bft) SO 135 7,6 C 21,8 C 4,2 km/h (1 Bft)
08.05.2012 10:34 21,5 C 39 % 0,0 l/m 4,2 km/h (1 Bft) S 180 7,0 C 21,5 C 6,3 km/h (2 Bft)
08.05.2012 10:36 21,5 C 39 % 0,0 l/m 4,8 km/h (1 Bft) S 180 7,0 C 21,2 C 10,8 km/h (2 Bft)
08.05.2012 10:38 21,4 C 40 % 0,0 l/m 4,8 km/h (1 Bft) S 180 7,2 C 21,0 C 6,4 km/h (2 Bft)
08.05.2012 10:40 21,5 C 39 % 0,0 l/m 4,8 km/h (1 Bft) S 180 7,0 C 20,9 C 3,7 km/h (1 Bft)
08.05.2012 10:42 21,7 C 40 % 0,0 l/m 4,7 km/h (1 Bft) N 360 7,5 C 21,0 C 3,5 km/h (1 Bft)
08.05.2012 10:44 21,9 C 41 % 0,0 l/m 4,5 km/h (1 Bft) O 90 8,0 C 21,1 C 5,0 km/h (1 Bft)
08.05.2012 10:46 21,9 C 41 % 0,0 l/m 4,3 km/h (1 Bft) S-SO 157 8,0 C 21,1 C 6,3 km/h (2 Bft)
08.05.2012 10:48 22,0 C 40 % 0,0 l/m 4,3 km/h (1 Bft) S 180 7,8 C 21,1 C 6,3 km/h (2 Bft)
08.05.2012 10:50 22,1 C 40 % 0,0 l/m 4,2 km/h (1 Bft) SO 135 7,9 C 21,0 C 5,0 km/h (1 Bft)
08.05.2012 10:52 22,2 C 40 % 0,0 l/m 4,7 km/h (1 Bft) SO 135 8,0 C 21,0 C 4,8 km/h (1 Bft)
08.05.2012 10:54 22,3 C 40 % 0,0 l/m 4,7 km/h (1 Bft) S-SO 157 8,0 C 20,9 C 4,8 km/h (1 Bft)
08.05.2012 10:56 22,2 C 39 % 0,0 l/m 4,8 km/h (1 Bft) S 180 7,6 C 20,9 C 3,9 km/h (1 Bft)
08.05.2012 10:58 22,3 C 40 % 0,0 l/m 4,5 km/h (1 Bft) S-SO 157 8,0 C 20,8 C 4,7 km/h (1 Bft)
08.05.2012 11:00 22,3 C 38 % 0,0 l/m 4,5 km/h (1 Bft) W-NW 292 7,3 C 20,8 C 4,7 km/h (1 Bft)
08.05.2012 11:02 22,4 C 38 % 0,0 l/m 4,7 km/h (1 Bft) SO 135 7,4 C 20,8 C 6,6 km/h (2 Bft)
08.05.2012 11:04 22,4 C 38 % 0,0 l/m 4,5 km/h (1 Bft) SO 135 7,4 C 20,8 C 6,6 km/h (2 Bft)
08.05.2012 11:06 22,4 C 36 % 0,0 l/m 4,0 km/h (1 Bft) W-SW 247 6,6 C 20,8 C 3,2 km/h (1 Bft)
08.05.2012 11:08 22,6 C 38 % 0,0 l/m 4,2 km/h (1 Bft) O-NO 67 7,6 C 20,9 C 4,8 km/h (1 Bft)
08.05.2012 11:10 22,7 C 38 % 0,0 l/m 4,3 km/h (1 Bft) S 180 7,6 C 20,9 C 4,8 km/h (1 Bft)
08.05.2012 11:12 22,7 C 38 % 0,0 l/m 4,5 km/h (1 Bft) O-SO 112 7,6 C 20,8 C 6,3 km/h (2 Bft)
08.05.2012 11:14 22,7 C 39 % 0,0 l/m 4,3 km/h (1 Bft) O-SO 112 8,0 C 20,8 C 8,4 km/h (2 Bft)
08.05.2012 11:16 22,9 C 39 % 0,0 l/m 5,0 km/h (1 Bft) O-SO 112 8,2 C 20,8 C 8,4 km/h (2 Bft)
08.05.2012 11:18 23,1 C 38 % 0,0 l/m 4,8 km/h (1 Bft) O-NO 67 8,0 C 20,8 C 6,6 km/h (2 Bft)
08.05.2012 11:20 23,2 C 38 % 0,0 l/m 5,0 km/h (1 Bft) S 180 8,1 C 20,8 C 9,0 km/h (2 Bft)
08.05.2012 11:22 23,2 C 37 % 0,0 l/m 5,3 km/h (1 Bft) W-SW 247 7,7 C 20,7 C 9,0 km/h (2 Bft)
08.05.2012 11:24 23,1 C 34 % 0,0 l/m 5,1 km/h (1 Bft) W 270 6,4 C 20,5 C 5,5 km/h (1 Bft)
08.05.2012 11:26 22,8 C 35 % 0,0 l/m 5,1 km/h (1 Bft) S 180 6,5 C 20,4 C 9,5 km/h (2 Bft)
08.05.2012 11:28 22,9 C 37 % 0,0 l/m 5,5 km/h (1 Bft) S 180 7,4 C 20,4 C 12,6 km/h (3 Bft)
08.05.2012 11:30 22,9 C 35 % 0,0 l/m 5,5 km/h (1 Bft) SO 135 6,6 C 20,3 C 12,6 km/h (3 Bft)
08.05.2012 11:32 22,9 C 37 % 0,0 l/m 4,5 km/h (1 Bft) W 270 7,4 C 20,3 C 3,2 km/h (1 Bft)
08.05.2012 11:34 22,9 C 35 % 0,0 l/m 4,5 km/h (1 Bft) S 180 6,6 C 20,4 C 6,0 km/h (2 Bft)
08.05.2012 11:36 22,9 C 35 % 0,0 l/m 4,2 km/h (1 Bft) N-NW 337 6,6 C 20,6 C 12,6 km/h (3 Bft)
08.05.2012 11:38 23,1 C 38 % 0,0 l/m 3,2 km/h (1 Bft) NO 45 8,0 C 20,8 C 2,1 km/h (1 Bft)
08.05.2012 11:40 23,2 C 37 % 0,0 l/m 2,4 km/h (1 Bft) N-NO 22 7,7 C 21,1 C 4,8 km/h (1 Bft)
08.05.2012 11:42 23,0 C 34 % 0,0 l/m 2,7 km/h (1 Bft) N-NO 22 6,3 C 21,4 C 6,1 km/h (2 Bft)
08.05.2012 11:44 22,6 C 37 % 0,0 l/m 2,7 km/h (1 Bft) O-NO 67 7,2 C 21,3 C 6,1 km/h (2 Bft)
08.05.2012 11:46 22,6 C 34 % 0,0 l/m 2,6 km/h (1 Bft) NO 45 5,9 C 21,3 C 3,2 km/h (1 Bft)
08.05.2012 11:48 22,5 C 34 % 0,0 l/m 2,9 km/h (1 Bft) N 360 5,9 C 21,3 C 5,5 km/h (1 Bft)
08.05.2012 11:50 22,3 C 36 % 0,0 l/m 3,1 km/h (1 Bft) NO 45 6,5 C 21,3 C 5,5 km/h (1 Bft)
08.05.2012 11:52 22,5 C 38 % 0,0 l/m 2,7 km/h (1 Bft) O 90 7,5 C 21,2 C 3,9 km/h (1 Bft)
08.05.2012 11:54 22,8 C 38 % 0,0 l/m 2,1 km/h (1 Bft) S-SO 157 7,7 C 21,2 C 2,6 km/h (1 Bft)
08.05.2012 11:56 23,3 C 38 % 0,0 l/m 2,3 km/h (1 Bft) S 180 8,2 C 21,4 C 5,6 km/h (1 Bft)
08.05.2012 11:58 23,4 C 35 % 0,0 l/m 3,1 km/h (1 Bft) O-SO 112 7,1 C 21,3 C 8,9 km/h (2 Bft)
08.05.2012 12:00 23,3 C 38 % 0,0 l/m 3,5 km/h (1 Bft) O-SO 112 8,2 C 21,1 C 10,6 km/h (2 Bft)
08.05.2012 12:02 23,4 C 38 % 0,0 l/m 4,5 km/h (1 Bft) O 90 8,3 C 20,8 C 10,6 km/h (2 Bft)
08.05.2012 12:04 23,7 C 37 % 0,0 l/m 5,0 km/h (1 Bft) O-NO 67 8,1 C 20,6 C 7,2 km/h (2 Bft)
08.05.2012 12:06 23,6 C 37 % 0,0 l/m 5,5 km/h (1 Bft) SO 135 8,0 C 20,5 C 6,0 km/h (2 Bft)
08.05.2012 12:08 23,9 C 37 % 0,0 l/m 5,1 km/h (1 Bft) S-SO 157 8,3 C 20,4 C 6,1 km/h (2 Bft)
08.05.2012 12:10 24,0 C 37 % 0,0 l/m 5,1 km/h (1 Bft) NW 315 8,4 C 20,3 C 6,1 km/h (2 Bft)
08.05.2012 12:12 24,0 C 36 % 0,0 l/m 4,3 km/h (1 Bft) NW 315 8,0 C 20,2 C 5,3 km/h (1 Bft)
08.05.2012 12:14 24,1 C 37 % 0,0 l/m 4,0 km/h (1 Bft) S 180 8,5 C 20,1 C 4,0 km/h (1 Bft)
08.05.2012 12:16 24,0 C 37 % 0,0 l/m 4,3 km/h (1 Bft) O 90 8,4 C 20,1 C 6,0 km/h (2 Bft)
08.05.2012 12:18 23,9 C 37 % 0,0 l/m 4,8 km/h (1 Bft) SO 135 8,3 C 20,0 C 6,9 km/h (2 Bft)
08.05.2012 12:20 23,9 C 37 % 0,0 l/m 4,8 km/h (1 Bft) O-SO 112 8,3 C 19,8 C 6,9 km/h (2 Bft)
08.05.2012 12:22 24,0 C 35 % 0,0 l/m 4,5 km/h (1 Bft) O 90 7,6 C 19,7 C 4,0 km/h (1 Bft)
08.05.2012 12:24 24,1 C 34 % 0,0 l/m 4,5 km/h (1 Bft) W 270 7,2 C 19,7 C 6,3 km/h (2 Bft)
08.05.2012 12:26 23,7 C 33 % 0,0 l/m 4,3 km/h (1 Bft) W-SW 247 6,5 C 19,6 C 6,3 km/h (2 Bft)
08.05.2012 12:28 23,6 C 35 % 0,0 l/m 4,2 km/h (1 Bft) W-NW 292 7,2 C 19,5 C 5,1 km/h (1 Bft)
08.05.2012 12:30 23,5 C 36 % 0,0 l/m 3,5 km/h (1 Bft) N-NO 22 7,6 C 19,4 C 4,5 km/h (1 Bft)
08.05.2012 12:32 23,5 C 34 % 0,0 l/m 3,9 km/h (1 Bft) W-SW 247 6,7 C 19,5 C 5,5 km/h (1 Bft)
08.05.2012 12:34 23,5 C 34 % 0,0 l/m 4,2 km/h (1 Bft) W-SW 247 6,7 C 19,4 C 6,6 km/h (2 Bft)
08.05.2012 12:36 23,1 C 34 % 0,0 l/m 4,3 km/h (1 Bft) W-SW 247 6,4 C 19,4 C 6,6 km/h (2 Bft)
08.05.2012 12:38 23,3 C 35 % 0,0 l/m 4,0 km/h (1 Bft) NO 45 7,0 C 19,3 C 4,7 km/h (1 Bft)
08.05.2012 12:40 23,4 C 36 % 0,0 l/m 4,0 km/h (1 Bft) S-SO 157 7,5 C 19,4 C 6,4 km/h (2 Bft)
08.05.2012 12:42 23,6 C 37 % 0,0 l/m 4,2 km/h (1 Bft) S 180 8,0 C 19,6 C 6,4 km/h (2 Bft)
08.05.2012 12:44 23,9 C 34 % 0,0 l/m 4,3 km/h (1 Bft) S-SW 202 7,1 C 19,6 C 8,7 km/h (2 Bft)
08.05.2012 12:46 23,9 C 36 % 0,0 l/m 4,3 km/h (1 Bft) SO 135 7,9 C 19,4 C 8,7 km/h (2 Bft)
08.05.2012 12:48 23,9 C 37 % 0,0 l/m 3,9 km/h (1 Bft) S-SW 202 8,3 C 19,4 C 3,9 km/h (1 Bft)
08.05.2012 12:50 24,1 C 37 % 0,0 l/m 3,7 km/h (1 Bft) W 270 8,5 C 19,5 C 3,1 km/h (1 Bft)
08.05.2012 12:52 24,3 C 33 % 0,0 l/m 3,7 km/h (1 Bft) SW 225 7,0 C 19,7 C 5,3 km/h (1 Bft)
08.05.2012 12:54 24,3 C 35 % 0,0 l/m 3,1 km/h (1 Bft) S 180 7,8 C 19,7 C 5,3 km/h (1 Bft)
08.05.2012 12:56 24,7 C 33 % 0,0 l/m 2,4 km/h (1 Bft) W-NW 292 7,3 C 19,8 C 3,1 km/h (1 Bft)
08.05.2012 12:58 24,6 C 33 % 0,0 l/m 2,3 km/h (1 Bft) W-SW 247 7,2 C 20,0 C 3,1 km/h (1 Bft)
08.05.2012 13:00 24,6 C 33 % 0,0 l/m 2,6 km/h (1 Bft) S-SW 202 7,2 C 20,0 C 9,2 km/h (2 Bft)
08.05.2012 13:02 24,5 C 36 % 0,0 l/m 3,2 km/h (1 Bft) W-SW 247 8,4 C 20,0 C 9,2 km/h (2 Bft)
08.05.2012 13:04 24,4 C 34 % 0,0 l/m 3,4 km/h (1 Bft) N-NW 337 7,5 C 20,1 C 5,8 km/h (2 Bft)
08.05.2012 13:06 24,4 C 33 % 0,0 l/m 3,7 km/h (1 Bft) W-SW 247 7,1 C 20,2 C 4,7 km/h (1 Bft)
08.05.2012 13:08 24,3 C 33 % 0,0 l/m 4,5 km/h (1 Bft) N-NW 337 7,0 C 20,2 C 6,3 km/h (2 Bft)
08.05.2012 13:10 23,7 C 34 % 0,0 l/m 5,0 km/h (1 Bft) N 360 6,9 C 20,2 C 6,3 km/h (2 Bft)
08.05.2012 13:12 23,7 C 36 % 0,0 l/m 5,1 km/h (1 Bft) NO 45 7,7 C 20,2 C 5,0 km/h (1 Bft)
08.05.2012 13:14 23,3 C 37 % 0,0 l/m 4,3 km/h (1 Bft) NO 45 7,8 C 20,2 C 5,0 km/h (1 Bft)
08.05.2012 13:16 23,6 C 34 % 0,0 l/m 4,3 km/h (1 Bft) N-NW 337 6,8 C 20,4 C 4,2 km/h (1 Bft)
08.05.2012 13:18 22,9 C 35 % 0,0 l/m 4,2 km/h (1 Bft) SW 225 6,6 C 20,3 C 10,5 km/h (2 Bft)
08.05.2012 13:20 22,3 C 36 % 0,0 l/m 4,3 km/h (1 Bft) S 180 6,5 C 20,0 C 10,5 km/h (2 Bft)
08.05.2012 13:22 21,9 C 36 % 0,0 l/m 4,2 km/h (1 Bft) W-SW 247 6,1 C 19,7 C 8,7 km/h (2 Bft)
08.05.2012 13:24 22,5 C 37 % 0,0 l/m 4,5 km/h (1 Bft) W-SW 247 7,1 C 19,4 C 5,0 km/h (1 Bft)
08.05.2012 13:26 22,8 C 37 % 0,0 l/m 4,7 km/h (1 Bft) N 360 7,3 C 19,5 C 5,0 km/h (1 Bft)
08.05.2012 13:28 22,9 C 37 % 0,0 l/m 5,1 km/h (1 Bft) W 270 7,4 C 19,7 C 8,0 km/h (2 Bft)
08.05.2012 13:30 22,9 C 34 % 0,0 l/m 5,6 km/h (1 Bft) W 270 6,2 C 20,0 C 11,4 km/h (2 Bft)
08.05.2012 13:32 22,8 C 35 % 0,0 l/m 5,8 km/h (2 Bft) W-NW 292 6,5 C 20,1 C 11,4 km/h (2 Bft)
08.05.2012 13:34 22,7 C 35 % 0,0 l/m 6,3 km/h (2 Bft) W-NW 292 6,4 C 20,2 C 8,0 km/h (2 Bft)
08.05.2012 13:36 22,8 C 35 % 0,0 l/m 6,3 km/h (2 Bft) W 270 6,5 C 20,4 C 6,4 km/h (2 Bft)
08.05.2012 13:38 23,0 C 37 % 0,0 l/m 5,6 km/h (1 Bft) S-SO 157 7,5 C 20,8 C 6,4 km/h (2 Bft)
08.05.2012 13:40 23,3 C 37 % 0,0 l/m 4,7 km/h (1 Bft) S-SO 157 7,8 C 21,2 C 3,9 km/h (1 Bft)
08.05.2012 13:42 23,6 C 36 % 0,0 l/m 3,9 km/h (1 Bft) W-NW 292 7,6 C 21,8 C 3,9 km/h (1 Bft)
08.05.2012 13:44 23,7 C 34 % 0,0 l/m 3,4 km/h (1 Bft) W-SW 247 6,9 C 22,1 C 5,0 km/h (1 Bft)
08.05.2012 13:46 23,7 C 34 % 0,0 l/m 2,9 km/h (1 Bft) S-SW 202 6,9 C 22,4 C 5,0 km/h (1 Bft)
08.05.2012 13:48 23,8 C 34 % 0,0 l/m 3,2 km/h (1 Bft) W-SW 247 7,0 C 22,5 C 3,7 km/h (1 Bft)
08.05.2012 13:50 23,8 C 34 % 0,0 l/m 4,0 km/h (1 Bft) S 180 7,0 C 22,6 C 5,6 km/h (1 Bft)
08.05.2012 13:52 23,9 C 34 % 0,0 l/m 4,5 km/h (1 Bft) S 180 7,1 C 22,6 C 5,6 km/h (1 Bft)
08.05.2012 13:54 23,8 C 33 % 0,0 l/m 4,7 km/h (1 Bft) O-SO 112 6,6 C 22,6 C 4,7 km/h (1 Bft)
08.05.2012 13:56 23,9 C 36 % 0,0 l/m 4,5 km/h (1 Bft) O-SO 112 7,9 C 22,8 C 6,1 km/h (2 Bft)
08.05.2012 13:58 23,9 C 33 % 0,0 l/m 4,7 km/h (1 Bft) W-SW 247 6,6 C 22,9 C 6,1 km/h (2 Bft)
08.05.2012 14:00 24,0 C 34 % 0,0 l/m 3,9 km/h (1 Bft) S 180 7,2 C 22,9 C 6,0 km/h (2 Bft)
08.05.2012 14:02 24,3 C 35 % 0,0 l/m 3,4 km/h (1 Bft) NO 45 7,8 C 23,3 C 3,4 km/h (1 Bft)
08.05.2012 14:04 24,4 C 33 % 0,0 l/m 2,7 km/h (1 Bft) S 180 7,1 C 23,8 C 3,4 km/h (1 Bft)
08.05.2012 14:06 24,4 C 34 % 0,0 l/m 2,9 km/h (1 Bft) S 180 7,5 C 24,1 C 3,1 km/h (1 Bft)
08.05.2012 14:08 24,2 C 34 % 0,0 l/m 3,2 km/h (1 Bft) S-SW 202 7,3 C 24,2 C 8,2 km/h (2 Bft)
08.05.2012 14:10 24,1 C 34 % 0,0 l/m 3,9 km/h (1 Bft) W 270 7,2 C 23,8 C 8,2 km/h (2 Bft)
08.05.2012 14:12 23,7 C 34 % 0,0 l/m 4,7 km/h (1 Bft) N-NW 337 6,9 C 23,5 C 8,9 km/h (2 Bft)
08.05.2012 14:14 23,4 C 35 % 0,0 l/m 5,3 km/h (1 Bft) W-NW 292 7,1 C 23,2 C 8,9 km/h (2 Bft)
08.05.2012 14:16 23,5 C 37 % 0,0 l/m 6,0 km/h (2 Bft) N-NO 22 8,0 C 22,8 C 8,4 km/h (2 Bft)
08.05.2012 14:18 23,5 C 35 % 0,0 l/m 6,1 km/h (2 Bft) W-NW 292 7,1 C 22,6 C 8,4 km/h (2 Bft)
08.05.2012 14:20 23,4 C 34 % 0,0 l/m 6,0 km/h (2 Bft) W 270 6,6 C 22,4 C 9,3 km/h (2 Bft)
08.05.2012 14:22 23,2 C 37 % 0,0 l/m 5,6 km/h (1 Bft) N 360 7,7 C 22,5 C 9,3 km/h (2 Bft)
08.05.2012 14:24 23,2 C 35 % 0,0 l/m 5,3 km/h (1 Bft) W-NW 292 6,9 C 22,6 C 6,1 km/h (2 Bft)
08.05.2012 14:26 23,3 C 35 % 0,0 l/m 5,0 km/h (1 Bft) N-NO 22 7,0 C 22,6 C 12,9 km/h (3 Bft)
08.05.2012 14:28 23,3 C 37 % 0,0 l/m 5,0 km/h (1 Bft) W 270 7,8 C 22,6 C 8,4 km/h (2 Bft)
08.05.2012 14:30 23,3 C 35 % 0,0 l/m 4,8 km/h (1 Bft) W 270 7,0 C 22,7 C 8,4 km/h (2 Bft)
08.05.2012 14:32 23,2 C 35 % 0,0 l/m 5,0 km/h (1 Bft) W 270 6,9 C 22,7 C 8,2 km/h (2 Bft)
08.05.2012 14:34 23,2 C 37 % 0,0 l/m 5,5 km/h (1 Bft) N 360 7,7 C 22,7 C 7,2 km/h (2 Bft)
08.05.2012 14:36 23,2 C 35 % 0,0 l/m 5,3 km/h (1 Bft) W-NW 292 6,9 C 22,8 C 7,2 km/h (2 Bft)
08.05.2012 14:38 23,2 C 37 % 0,0 l/m 5,3 km/h (1 Bft) N 360 7,7 C 22,7 C 6,3 km/h (2 Bft)
08.05.2012 14:40 23,3 C 36 % 0,0 l/m 4,8 km/h (1 Bft) W-NW 292 7,4 C 22,8 C 5,8 km/h (2 Bft)
08.05.2012 14:42 23,5 C 36 % 0,0 l/m 4,7 km/h (1 Bft) W 270 7,6 C 23,0 C 6,3 km/h (2 Bft)
08.05.2012 14:44 23,5 C 37 % 0,0 l/m 4,2 km/h (1 Bft) SO 135 8,0 C 23,1 C 6,3 km/h (2 Bft)
08.05.2012 14:46 23,6 C 36 % 0,0 l/m 4,0 km/h (1 Bft) W-SW 247 7,6 C 23,2 C 5,0 km/h (1 Bft)
08.05.2012 14:48 23,7 C 36 % 0,0 l/m 3,7 km/h (1 Bft) W 270 7,7 C 23,3 C 5,0 km/h (1 Bft)
08.05.2012 14:50 23,6 C 37 % 0,0 l/m 3,5 km/h (1 Bft) O-SO 112 8,0 C 23,4 C 3,9 km/h (1 Bft)
08.05.2012 14:52 23,5 C 37 % 0,0 l/m 3,7 km/h (1 Bft) W-NW 292 8,0 C 23,8 C 3,5 km/h (1 Bft)
08.05.2012 14:54 23,5 C 37 % 0,0 l/m 3,7 km/h (1 Bft) W-SW 247 8,0 C 23,9 C 5,8 km/h (2 Bft)
08.05.2012 14:56 23,3 C 37 % 0,0 l/m 3,7 km/h (1 Bft) W 270 7,8 C 23,8 C 5,8 km/h (2 Bft)
08.05.2012 14:58 23,3 C 37 % 0,0 l/m 4,2 km/h (1 Bft) W 270 7,8 C 23,7 C 5,6 km/h (1 Bft)
08.05.2012 15:00 23,2 C 37 % 0,0 l/m 4,2 km/h (1 Bft) N-NW 337 7,7 C 23,6 C 5,6 km/h (1 Bft)
08.05.2012 15:02 23,2 C 37 % 0,0 l/m 4,2 km/h (1 Bft) S-SW 202 7,7 C 23,7 C 6,6 km/h (2 Bft)
08.05.2012 15:04 23,2 C 38 % 0,0 l/m 4,0 km/h (1 Bft) N-NW 337 8,1 C 23,8 C 6,9 km/h (2 Bft)
08.05.2012 15:06 23,5 C 36 % 0,0 l/m 3,7 km/h (1 Bft) W-NW 292 7,6 C 23,8 C 6,9 km/h (2 Bft)
08.05.2012 15:08 23,3 C 37 % 0,0 l/m 3,5 km/h (1 Bft) NO 45 7,8 C 23,7 C 4,8 km/h (1 Bft)
08.05.2012 15:10 23,2 C 37 % 0,0 l/m 3,2 km/h (1 Bft) W 270 7,7 C 23,8 C 4,3 km/h (1 Bft)
08.05.2012 15:12 23,2 C 37 % 0,0 l/m 3,2 km/h (1 Bft) O-NO 67 7,7 C 23,9 C 4,3 km/h (1 Bft)
08.05.2012 15:14 23,1 C 37 % 0,0 l/m 3,4 km/h (1 Bft) O 90 7,6 C 23,9 C 3,4 km/h (1 Bft)
08.05.2012 15:16 23,0 C 38 % 0,0 l/m 3,5 km/h (1 Bft) O-SO 112 7,9 C 23,8 C 5,5 km/h (1 Bft)
08.05.2012 15:18 23,3 C 38 % 0,0 l/m 3,4 km/h (1 Bft) SO 135 8,2 C 23,6 C 5,5 km/h (1 Bft)
08.05.2012 15:20 23,5 C 38 % 0,0 l/m 3,4 km/h (1 Bft) S-SW 202 8,4 C 23,6 C 4,3 km/h (1 Bft)
08.05.2012 15:22 23,6 C 38 % 0,0 l/m 3,5 km/h (1 Bft) S-SW 202 8,4 C 23,6 C 4,3 km/h (1 Bft)
08.05.2012 15:24 23,8 C 37 % 0,0 l/m 3,7 km/h (1 Bft) S 180 8,2 C 23,6 C 4,0 km/h (1 Bft)
08.05.2012 15:26 23,6 C 38 % 0,0 l/m 4,0 km/h (1 Bft) S 180 8,4 C 23,6 C 9,5 km/h (2 Bft)
08.05.2012 15:28 23,6 C 38 % 0,0 l/m 4,5 km/h (1 Bft) S 180 8,4 C 23,5 C 9,5 km/h (2 Bft)
08.05.2012 15:30 23,4 C 37 % 0,0 l/m 4,8 km/h (1 Bft) W 270 7,9 C 23,4 C 5,3 km/h (1 Bft)
08.05.2012 15:32 23,1 C 37 % 0,0 l/m 5,3 km/h (1 Bft) W-NW 292 7,6 C 23,0 C 8,0 km/h (2 Bft)
08.05.2012 15:34 22,8 C 37 % 0,0 l/m 5,6 km/h (1 Bft) N-NW 337 7,3 C 22,7 C 8,0 km/h (2 Bft)
08.05.2012 15:36 22,8 C 37 % 0,0 l/m 6,0 km/h (2 Bft) W-SW 247 7,3 C 22,3 C 15,1 km/h (3 Bft)
08.05.2012 15:38 22,8 C 37 % 0,0 l/m 5,1 km/h (1 Bft) W-SW 247 7,3 C 22,2 C 5,3 km/h (1 Bft)
08.05.2012 15:40 22,9 C 38 % 0,0 l/m 5,3 km/h (1 Bft) S 180 7,8 C 22,3 C 4,3 km/h (1 Bft)
08.05.2012 15:42 23,1 C 37 % 0,0 l/m 4,8 km/h (1 Bft) SW 225 7,6 C 22,6 C 5,1 km/h (1 Bft)
08.05.2012 15:44 23,1 C 37 % 0,0 l/m 4,7 km/h (1 Bft) W-SW 247 7,6 C 22,9 C 7,1 km/h (2 Bft)
08.05.2012 15:46 23,3 C 37 % 0,0 l/m 4,2 km/h (1 Bft) N-NW 337 7,8 C 23,1 C 7,1 km/h (2 Bft)
08.05.2012 15:48 23,3 C 37 % 0,0 l/m 3,4 km/h (1 Bft) S 180 7,8 C 23,5 C 2,9 km/h (1 Bft)
08.05.2012 15:50 23,5 C 37 % 0,0 l/m 2,9 km/h (1 Bft) SO 135 8,0 C 24,2 C 5,3 km/h (1 Bft)
08.05.2012 15:52 23,7 C 37 % 0,0 l/m 3,2 km/h (1 Bft) S-SO 157 8,1 C 24,4 C 5,3 km/h (1 Bft)
08.05.2012 15:54 23,6 C 36 % 0,0 l/m 3,1 km/h (1 Bft) S 180 7,6 C 24,6 C 3,9 km/h (1 Bft)
08.05.2012 15:56 23,4 C 38 % 0,0 l/m 3,1 km/h (1 Bft) S 180 8,3 C 24,7 C 7,7 km/h (2 Bft)
08.05.2012 15:58 23,3 C 38 % 0,0 l/m 3,7 km/h (1 Bft) S-SO 157 8,2 C 24,5 C 7,7 km/h (2 Bft)
08.05.2012 16:00 23,2 C 38 % 0,0 l/m 3,7 km/h (1 Bft) S-SW 202 8,1 C 24,3 C 6,1 km/h (2 Bft)
08.05.2012 16:02 23,3 C 37 % 0,0 l/m 3,4 km/h (1 Bft) S 180 7,8 C 24,2 C 6,9 km/h (2 Bft)
08.05.2012 16:04 23,3 C 37 % 0,0 l/m 4,0 km/h (1 Bft) W 270 7,8 C 24,0 C 6,9 km/h (2 Bft)
08.05.2012 16:06 23,1 C 37 % 0,0 l/m 3,9 km/h (1 Bft) N-NW 337 7,6 C 23,9 C 4,8 km/h (1 Bft)
08.05.2012 16:08 22,9 C 37 % 0,0 l/m 3,2 km/h (1 Bft) W-SW 247 7,4 C 24,0 C 4,5 km/h (1 Bft)
08.05.2012 16:10 22,9 C 37 % 0,0 l/m 3,4 km/h (1 Bft) W-NW 292 7,4 C 24,0 C 5,5 km/h (1 Bft)
08.05.2012 16:12 22,8 C 38 % 0,0 l/m 3,5 km/h (1 Bft) S 180 7,7 C 24,0 C 5,5 km/h (1 Bft)
08.05.2012 16:14 22,8 C 39 % 0,0 l/m 3,2 km/h (1 Bft) S-SO 157 8,1 C 24,0 C 7,7 km/h (2 Bft)
08.05.2012 16:16 22,9 C 38 % 0,0 l/m 3,5 km/h (1 Bft) W-SW 247 7,8 C 24,1 C 7,7 km/h (2 Bft)
08.05.2012 16:18 23,1 C 39 % 0,0 l/m 3,7 km/h (1 Bft) S-SO 157 8,4 C 24,1 C 5,8 km/h (2 Bft)
08.05.2012 16:20 23,3 C 39 % 0,0 l/m 5,0 km/h (1 Bft) W-SW 247 8,6 C 24,2 C 14,6 km/h (3 Bft)
08.05.2012 16:22 23,2 C 37 % 0,0 l/m 5,3 km/h (1 Bft) N-NW 337 7,7 C 24,1 C 14,6 km/h (3 Bft)
08.05.2012 16:24 23,2 C 38 % 0,0 l/m 5,5 km/h (1 Bft) S 180 8,1 C 24,2 C 4,3 km/h (1 Bft)
08.05.2012 16:26 23,3 C 37 % 0,0 l/m 5,5 km/h (1 Bft) S 180 7,8 C 24,5 C 6,8 km/h (2 Bft)
08.05.2012 16:28 23,1 C 39 % 0,0 l/m 5,6 km/h (1 Bft) SO 135 8,4 C 24,7 C 9,8 km/h (2 Bft)
08.05.2012 16:30 23,0 C 39 % 0,0 l/m 5,6 km/h (1 Bft) SO 135 8,3 C 24,5 C 9,8 km/h (2 Bft)
08.05.2012 16:32 23,0 C 38 % 0,0 l/m 4,7 km/h (1 Bft) S-SO 157 7,9 C 24,3 C 5,6 km/h (1 Bft)
08.05.2012 16:34 22,9 C 39 % 0,0 l/m 4,2 km/h (1 Bft) NO 45 8,2 C 24,2 C 4,2 km/h (1 Bft)
08.05.2012 16:36 22,9 C 39 % 0,0 l/m 4,2 km/h (1 Bft) S 180 8,2 C 24,3 C 4,2 km/h (1 Bft)
08.05.2012 16:38 22,9 C 38 % 0,0 l/m 4,2 km/h (1 Bft) W 270 7,8 C 24,4 C 6,0 km/h (2 Bft)
08.05.2012 16:40 22,7 C 40 % 0,0 l/m 3,5 km/h (1 Bft) S-SW 202 8,4 C 24,4 C 6,0 km/h (2 Bft)
08.05.2012 16:42 22,7 C 39 % 0,0 l/m 3,5 km/h (1 Bft) W-SW 247 8,0 C 24,3 C 3,7 km/h (1 Bft)
08.05.2012 16:44 22,7 C 39 % 0,0 l/m 3,9 km/h (1 Bft) S 180 8,0 C 24,2 C 3,7 km/h (1 Bft)
08.05.2012 16:46 22,6 C 39 % 0,0 l/m 3,9 km/h (1 Bft) W 270 7,9 C 24,0 C 3,7 km/h (1 Bft)
08.05.2012 16:48 22,7 C 39 % 0,0 l/m 3,5 km/h (1 Bft) S 180 8,0 C 23,7 C 2,7 km/h (1 Bft)
08.05.2012 16:50 22,7 C 39 % 0,0 l/m 3,4 km/h (1 Bft) S 180 8,0 C 23,5 C 3,9 km/h (1 Bft)
08.05.2012 16:52 22,7 C 40 % 0,0 l/m 3,1 km/h (1 Bft) O-SO 112 8,4 C 23,5 C 3,9 km/h (1 Bft)
08.05.2012 16:54 22,7 C 39 % 0,0 l/m 2,9 km/h (1 Bft) S-SW 202 8,0 C 23,7 C 4,7 km/h (1 Bft)
08.05.2012 16:56 22,7 C 39 % 0,0 l/m 3,2 km/h (1 Bft) S-SW 202 8,0 C 23,6 C 4,3 km/h (1 Bft)
08.05.2012 16:58 22,6 C 40 % 0,0 l/m 3,5 km/h (1 Bft) W-NW 292 8,3 C 23,4 C 5,5 km/h (1 Bft)
08.05.2012 17:00 22,4 C 39 % 0,0 l/m 3,9 km/h (1 Bft) S-SW 202 7,8 C 23,2 C 7,4 km/h (2 Bft)
08.05.2012 17:02 22,0 C 39 % 0,0 l/m 4,2 km/h (1 Bft) W 270 7,4 C 23,0 C 7,4 km/h (2 Bft)
08.05.2012 17:04 21,9 C 41 % 0,0 l/m 4,3 km/h (1 Bft) S-SW 202 8,0 C 22,7 C 6,6 km/h (2 Bft)
08.05.2012 17:06 21,7 C 42 % 0,0 l/m 4,3 km/h (1 Bft) S 180 8,2 C 22,4 C 8,2 km/h (2 Bft)
08.05.2012 17:08 21,6 C 42 % 0,0 l/m 4,5 km/h (1 Bft) S-SW 202 8,1 C 21,9 C 8,2 km/h (2 Bft)
08.05.2012 17:10 21,5 C 42 % 0,0 l/m 4,5 km/h (1 Bft) S 180 8,0 C 21,4 C 3,9 km/h (1 Bft)
08.05.2012 17:12 21,2 C 41 % 0,0 l/m 4,7 km/h (1 Bft) N-NW 337 7,4 C 20,9 C 6,9 km/h (2 Bft)
08.05.2012 17:14 21,1 C 41 % 0,0 l/m 5,1 km/h (1 Bft) S-SW 202 7,3 C 20,7 C 7,9 km/h (2 Bft)
08.05.2012 17:16 21,1 C 42 % 0,0 l/m 5,1 km/h (1 Bft) S 180 7,7 C 20,2 C 8,0 km/h (2 Bft)
08.05.2012 17:18 20,8 C 42 % 0,0 l/m 4,3 km/h (1 Bft) W-SW 247 7,4 C 20,1 C 8,0 km/h (2 Bft)
08.05.2012 17:20 20,8 C 42 % 0,0 l/m 4,3 km/h (1 Bft) S 180 7,4 C 19,9 C 4,7 km/h (1 Bft)
08.05.2012 17:22 20,5 C 43 % 0,0 l/m 4,3 km/h (1 Bft) W-NW 292 7,5 C 19,7 C 5,8 km/h (2 Bft)
08.05.2012 17:24 20,4 C 43 % 0,0 l/m 4,2 km/h (1 Bft) W-SW 247 7,4 C 19,6 C 5,8 km/h (2 Bft)
08.05.2012 17:26 20,4 C 44 % 0,0 l/m 3,5 km/h (1 Bft) S 180 7,7 C 19,4 C 4,8 km/h (1 Bft)
08.05.2012 17:28 20,2 C 44 % 0,0 l/m 3,7 km/h (1 Bft) W 270 7,6 C 19,4 C 3,4 km/h (1 Bft)
08.05.2012 17:30 20,2 C 44 % 0,0 l/m 3,9 km/h (1 Bft) W-SW 247 7,6 C 19,3 C 6,0 km/h (2 Bft)
08.05.2012 17:32 20,1 C 44 % 0,0 l/m 3,5 km/h (1 Bft) S-SO 157 7,5 C 19,1 C 6,0 km/h (2 Bft)
08.05.2012 17:34 20,0 C 44 % 0,0 l/m 2,9 km/h (1 Bft) S-SW 202 7,4 C 19,1 C 4,0 km/h (1 Bft)
08.05.2012 17:36 20,0 C 44 % 0,0 l/m 3,1 km/h (1 Bft) W-SW 247 7,4 C 19,0 C 3,2 km/h (1 Bft)
08.05.2012 17:38 20,1 C 44 % 0,0 l/m 2,9 km/h (1 Bft) W 270 7,5 C 18,9 C 3,2 km/h (1 Bft)
08.05.2012 17:40 20,0 C 45 % 0,0 l/m 2,6 km/h (1 Bft) W 270 7,7 C 18,8 C 2,9 km/h (1 Bft)
08.05.2012 17:42 19,9 C 45 % 0,0 l/m 2,3 km/h (1 Bft) SO 135 7,6 C 18,8 C 2,7 km/h (1 Bft)
08.05.2012 17:44 19,9 C 47 % 0,0 l/m 1,9 km/h (1 Bft) N 360 8,3 C 18,7 C 2,6 km/h (1 Bft)
08.05.2012 17:46 19,9 C 48 % 0,0 l/m 1,9 km/h (1 Bft) NO 45 8,6 C 18,6 C 2,6 km/h (1 Bft)
08.05.2012 17:48 19,6 C 48 % 0,0 l/m 1,6 km/h (1 Bft) N-NW 337 8,3 C 18,6 C 3,2 km/h (1 Bft)
08.05.2012 17:50 19,5 C 51 % 0,0 l/m 1,8 km/h (1 Bft) NO 45 9,1 C 18,4 C 3,2 km/h (1 Bft)
08.05.2012 17:52 19,4 C 53 % 0,0 l/m 1,6 km/h (1 Bft) N 360 9,6 C 18,3 C 3,1 km/h (1 Bft)
08.05.2012 17:54 19,2 C 53 % 0,0 l/m 1,9 km/h (1 Bft) N-NW 337 9,4 C 18,2 C 4,0 km/h (1 Bft)
08.05.2012 17:56 19,1 C 55 % 0,0 l/m 1,8 km/h (1 Bft) W-NW 292 9,8 C 18,1 C 4,0 km/h (1 Bft)
08.05.2012 17:58 19,1 C 54 % 0,0 l/m 2,1 km/h (1 Bft) N 360 9,6 C 18,1 C 2,3 km/h (1 Bft)
08.05.2012 18:00 19,1 C 54 % 0,0 l/m 1,6 km/h (1 Bft) W 270 9,6 C 18,0 C 2,3 km/h (1 Bft)
08.05.2012 18:02 19,2 C 54 % 0,0 l/m 1,3 km/h (1 Bft) N-NO 22 9,7 C 18,1 C 1,6 km/h (1 Bft)
08.05.2012 18:04 19,2 C 54 % 0,0 l/m 1,0 km/h (0 Bft) W-SW 247 9,7 C 18,2 C 2,4 km/h (1 Bft)
08.05.2012 18:06 19,1 C 53 % 0,0 l/m 0,8 km/h (0 Bft) W-NW 292 9,3 C 18,2 C 2,4 km/h (1 Bft)
08.05.2012 18:08 19,1 C 52 % 0,0 l/m 0,8 km/h (0 Bft) NO 45 9,0 C 18,3 C 2,1 km/h (1 Bft)
08.05.2012 18:10 19,2 C 52 % 0,0 l/m 1,0 km/h (0 Bft) W-NW 292 9,1 C 18,2 C 3,4 km/h (1 Bft)
08.05.2012 18:12 19,2 C 53 % 0,0 l/m 0,8 km/h (0 Bft) W 270 9,4 C 18,2 C 3,4 km/h (1 Bft)
08.05.2012 18:14 19,1 C 52 % 0,0 l/m 0,8 km/h (0 Bft) W-SW 247 9,0 C 18,2 C 0,0 km/h (0 Bft)
08.05.2012 18:16 19,2 C 52 % 0,0 l/m 1,0 km/h (0 Bft) N-NW 337 9,1 C 18,2 C 0,0 km/h (0 Bft)
08.05.2012 18:18 19,2 C 53 % 0,0 l/m 0,8 km/h (0 Bft) N 360 9,4 C 18,2 C 1,6 km/h (1 Bft)
08.05.2012 18:20 19,2 C 52 % 0,0 l/m 0,6 km/h (0 Bft) W-NW 292 9,1 C 18,2 C 1,6 km/h (1 Bft)
08.05.2012 18:22 19,3 C 51 % 0,0 l/m 0,5 km/h (0 Bft) NO 45 8,9 C 18,3 C 0,0 km/h (0 Bft)
08.05.2012 18:24 19,3 C 52 % 0,0 l/m 0,5 km/h (0 Bft) O 90 9,2 C 18,3 C 0,0 km/h (0 Bft)
08.05.2012 18:26 19,2 C 55 % 0,0 l/m 0,3 km/h (0 Bft) N 360 9,9 C 18,3 C 0,0 km/h (0 Bft)
08.05.2012 18:28 19,1 C 53 % 0,0 l/m 0,2 km/h (0 Bft) W-SW 247 9,3 C 18,4 C 0,0 km/h (0 Bft)
08.05.2012 18:30 19,1 C 52 % 0,0 l/m 0,3 km/h (0 Bft) N-NW 337 9,0 C 18,4 C 1,8 km/h (1 Bft)
08.05.2012 18:32 19,1 C 55 % 0,0 l/m 0,3 km/h (0 Bft) N-NW 337 9,8 C 18,3 C 1,8 km/h (1 Bft)
08.05.2012 18:34 18,9 C 54 % 0,0 l/m 0,5 km/h (0 Bft) N-NO 22 9,4 C 18,3 C 2,3 km/h (1 Bft)
08.05.2012 18:36 18,9 C 52 % 0,0 l/m 0,8 km/h (0 Bft) N-NW 337 8,8 C 18,3 C 2,3 km/h (1 Bft)
08.05.2012 18:38 18,8 C 53 % 0,0 l/m 1,0 km/h (0 Bft) NW 315 9,0 C 18,3 C 1,9 km/h (1 Bft)
08.05.2012 18:40 18,9 C 54 % 0,0 l/m 1,3 km/h (1 Bft) O 90 9,4 C 18,2 C 3,5 km/h (1 Bft)
08.05.2012 18:42 18,8 C 53 % 0,0 l/m 1,4 km/h (1 Bft) NW 315 9,0 C 18,1 C 3,5 km/h (1 Bft)
08.05.2012 18:44 18,8 C 54 % 0,0 l/m 1,4 km/h (1 Bft) N 360 9,3 C 18,1 C 2,4 km/h (1 Bft)
08.05.2012 18:46 18,7 C 53 % 0,0 l/m 1,3 km/h (1 Bft) N-NW 337 8,9 C 18,0 C 0,0 km/h (0 Bft)
08.05.2012 18:48 18,7 C 53 % 0,0 l/m 1,1 km/h (1 Bft) W-NW 292 8,9 C 18,0 C 1,8 km/h (1 Bft)
08.05.2012 18:50 18,8 C 53 % 0,0 l/m 0,8 km/h (0 Bft) NW 315 9,0 C 18,0 C 1,8 km/h (1 Bft)
08.05.2012 18:52 18,8 C 53 % 0,0 l/m 0,5 km/h (0 Bft) N-NO 22 9,0 C 18,0 C 0,0 km/h (0 Bft)
08.05.2012 18:54 18,7 C 54 % 0,0 l/m 0,3 km/h (0 Bft) NO 45 9,2 C 18,0 C 0,0 km/h (0 Bft)
08.05.2012 18:56 18,6 C 55 % 0,0 l/m 0,3 km/h (0 Bft) N-NO 22 9,4 C 18,0 C 1,8 km/h (1 Bft)
08.05.2012 18:58 18,5 C 57 % 0,0 l/m 0,3 km/h (0 Bft) NO 45 9,8 C 18,0 C 1,8 km/h (1 Bft)
08.05.2012 19:00 18,4 C 57 % 0,0 l/m 0,2 km/h (0 Bft) N-NO 22 9,7 C 18,0 C 0,0 km/h (0 Bft)
08.05.2012 19:02 18,4 C 56 % 0,0 l/m 0,3 km/h (0 Bft) NO 45 9,5 C 18,0 C 0,0 km/h (0 Bft)
08.05.2012 19:04 18,3 C 59 % 0,0 l/m 0,2 km/h (0 Bft) N 360 10,1 C 18,0 C 0,0 km/h (0 Bft)
08.05.2012 19:06 18,2 C 58 % 0,0 l/m 0,2 km/h (0 Bft) NO 45 9,8 C 17,9 C 1,8 km/h (1 Bft)
08.05.2012 19:08 18,2 C 56 % 0,0 l/m 0,5 km/h (0 Bft) NO 45 9,3 C 17,9 C 2,1 km/h (1 Bft)
08.05.2012 19:10 18,2 C 58 % 0,0 l/m 0,8 km/h (0 Bft) N 360 9,8 C 17,8 C 2,1 km/h (1 Bft)
08.05.2012 19:12 18,3 C 57 % 0,0 l/m 0,8 km/h (0 Bft) NO 45 9,6 C 17,8 C 1,8 km/h (1 Bft)
08.05.2012 19:14 18,3 C 59 % 0,0 l/m 1,1 km/h (1 Bft) NO 45 10,1 C 17,7 C 2,1 km/h (1 Bft)
08.05.2012 19:16 18,3 C 61 % 0,0 l/m 1,4 km/h (1 Bft) O-NO 67 10,6 C 17,6 C 2,4 km/h (1 Bft)
08.05.2012 19:18 18,3 C 60 % 0,0 l/m 1,6 km/h (1 Bft) NO 45 10,4 C 17,4 C 2,6 km/h (1 Bft)
08.05.2012 19:20 18,2 C 61 % 0,0 l/m 1,6 km/h (1 Bft) O-NO 67 10,6 C 17,4 C 2,6 km/h (1 Bft)
08.05.2012 19:22 18,1 C 61 % 0,0 l/m 2,1 km/h (1 Bft) NO 45 10,5 C 17,3 C 3,1 km/h (1 Bft)
08.05.2012 19:24 18,0 C 61 % 0,0 l/m 2,3 km/h (1 Bft) NO 45 10,4 C 17,2 C 3,5 km/h (1 Bft)
08.05.2012 19:26 18,0 C 61 % 0,0 l/m 2,3 km/h (1 Bft) W-NW 292 10,4 C 17,2 C 3,5 km/h (1 Bft)
08.05.2012 19:28 17,9 C 62 % 0,0 l/m 1,9 km/h (1 Bft) N-NO 22 10,5 C 17,0 C 1,8 km/h (1 Bft)
08.05.2012 19:30 17,9 C 63 % 0,0 l/m 1,4 km/h (1 Bft) N-NO 22 10,8 C 16,9 C 0,0 km/h (0 Bft)
08.05.2012 19:32 17,7 C 64 % 0,0 l/m 1,1 km/h (1 Bft) W-NW 292 10,8 C 16,8 C 3,1 km/h (1 Bft)
08.05.2012 19:34 17,6 C 61 % 0,0 l/m 1,1 km/h (1 Bft) SO 135 10,0 C 16,7 C 5,5 km/h (1 Bft)
08.05.2012 19:36 17,6 C 60 % 0,0 l/m 1,1 km/h (1 Bft) SO 135 9,7 C 16,6 C 5,5 km/h (1 Bft)
08.05.2012 19:38 17,6 C 61 % 0,0 l/m 1,4 km/h (1 Bft) NO 45 10,0 C 16,6 C 3,4 km/h (1 Bft)
08.05.2012 19:40 17,5 C 61 % 0,0 l/m 1,4 km/h (1 Bft) NO 45 9,9 C 16,5 C 1,9 km/h (1 Bft)
08.05.2012 19:42 17,5 C 61 % 0,0 l/m 1,4 km/h (1 Bft) S-SW 202 9,9 C 16,4 C 1,9 km/h (1 Bft)
08.05.2012 19:44 17,3 C 62 % 0,0 l/m 1,4 km/h (1 Bft) N-NW 337 9,9 C 16,4 C 3,2 km/h (1 Bft)
08.05.2012 19:46 17,2 C 63 % 0,0 l/m 1,3 km/h (1 Bft) N 360 10,1 C 16,2 C 3,2 km/h (1 Bft)
08.05.2012 19:48 17,0 C 63 % 0,0 l/m 1,1 km/h (1 Bft) N 360 9,9 C 16,0 C 3,5 km/h (1 Bft)
08.05.2012 19:50 16,8 C 63 % 0,0 l/m 1,4 km/h (1 Bft) N 360 9,7 C 15,8 C 3,5 km/h (1 Bft)
08.05.2012 19:52 16,7 C 64 % 0,0 l/m 1,9 km/h (1 Bft) N 360 9,9 C 15,5 C 3,9 km/h (1 Bft)
08.05.2012 19:54 16,7 C 65 % 0,0 l/m 1,9 km/h (1 Bft) NO 45 10,1 C 15,4 C 3,9 km/h (1 Bft)
08.05.2012 19:56 16,5 C 66 % 0,0 l/m 2,1 km/h (1 Bft) N 360 10,1 C 15,3 C 6,1 km/h (2 Bft)
08.05.2012 19:58 16,3 C 67 % 0,0 l/m 2,4 km/h (1 Bft) N 360 10,2 C 15,2 C 6,1 km/h (2 Bft)
08.05.2012 20:00 16,2 C 66 % 0,0 l/m 2,3 km/h (1 Bft) N-NO 22 9,8 C 15,2 C 5,0 km/h (1 Bft)
08.05.2012 20:02 16,3 C 66 % 0,0 l/m 2,1 km/h (1 Bft) N-NO 22 9,9 C 15,2 C 3,9 km/h (1 Bft)
08.05.2012 20:04 16,2 C 65 % 0,0 l/m 1,6 km/h (1 Bft) O-NO 67 9,6 C 15,2 C 3,9 km/h (1 Bft)
08.05.2012 20:06 16,3 C 65 % 0,0 l/m 1,6 km/h (1 Bft) N-NW 337 9,7 C 15,2 C 1,8 km/h (1 Bft)
08.05.2012 20:08 16,3 C 67 % 0,0 l/m 0,8 km/h (0 Bft) O-NO 67 10,2 C 15,2 C 0,0 km/h (0 Bft)
08.05.2012 20:10 16,2 C 67 % 0,0 l/m 0,5 km/h (0 Bft) NO 45 10,1 C 15,2 C 1,6 km/h (1 Bft)
08.05.2012 20:12 16,1 C 66 % 0,0 l/m 0,3 km/h (0 Bft) N-NO 22 9,7 C 15,2 C 1,6 km/h (1 Bft)
08.05.2012 20:14 16,0 C 66 % 0,0 l/m 0,0 km/h (0 Bft) O 90 9,7 C 15,0 C 0,0 km/h (0 Bft)
08.05.2012 20:16 15,9 C 65 % 0,0 l/m 0,2 km/h (0 Bft) N 360 9,3 C 15,0 C 1,8 km/h (1 Bft)
08.05.2012 20:18 15,9 C 66 % 0,0 l/m 0,5 km/h (0 Bft) N 360 9,6 C 14,9 C 2,7 km/h (1 Bft)
08.05.2012 20:20 15,9 C 65 % 0,0 l/m 1,1 km/h (1 Bft) N 360 9,3 C 14,8 C 5,1 km/h (1 Bft)
08.05.2012 20:22 15,7 C 64 % 0,0 l/m 1,8 km/h (1 Bft) N-NO 22 8,9 C 14,6 C 5,1 km/h (1 Bft)
08.05.2012 20:24 15,7 C 64 % 0,0 l/m 1,9 km/h (1 Bft) N-NO 22 8,9 C 14,6 C 3,9 km/h (1 Bft)
08.05.2012 20:26 15,6 C 65 % 0,0 l/m 2,3 km/h (1 Bft) N-NO 22 9,0 C 14,5 C 3,5 km/h (1 Bft)
08.05.2012 20:28 15,5 C 66 % 0,0 l/m 2,4 km/h (1 Bft) N-NO 22 9,2 C 14,4 C 3,5 km/h (1 Bft)
08.05.2012 20:30 15,5 C 66 % 0,0 l/m 2,3 km/h (1 Bft) O-SO 112 9,2 C 14,2 C 3,2 km/h (1 Bft)
08.05.2012 20:32 15,3 C 67 % 0,0 l/m 2,1 km/h (1 Bft) NO 45 9,2 C 14,1 C 2,3 km/h (1 Bft)
08.05.2012 20:34 15,2 C 66 % 0,0 l/m 1,6 km/h (1 Bft) N-NO 22 8,9 C 13,9 C 2,3 km/h (1 Bft)
08.05.2012 20:36 15,2 C 67 % 0,0 l/m 1,4 km/h (1 Bft) N-NO 22 9,1 C 13,7 C 2,3 km/h (1 Bft)
08.05.2012 20:38 15,1 C 67 % 0,0 l/m 1,3 km/h (1 Bft) N 360 9,0 C 13,6 C 1,6 km/h (1 Bft)
08.05.2012 20:40 15,1 C 67 % 0,0 l/m 1,0 km/h (0 Bft) N-NO 22 9,0 C 13,5 C 3,2 km/h (1 Bft)
08.05.2012 20:42 14,9 C 68 % 0,0 l/m 1,0 km/h (0 Bft) N-NO 22 9,0 C 13,5 C 3,2 km/h (1 Bft)
08.05.2012 20:44 14,8 C 68 % 0,0 l/m 0,8 km/h (0 Bft) N-NW 337 9,0 C 13,4 C 3,2 km/h (1 Bft)
08.05.2012 20:46 14,8 C 68 % 0,0 l/m 0,6 km/h (0 Bft) N 360 9,0 C 13,3 C 1,6 km/h (1 Bft)
08.05.2012 20:48 14,9 C 68 % 0,0 l/m 0,6 km/h (0 Bft) N-NW 337 9,0 C 13,3 C 1,8 km/h (1 Bft)
08.05.2012 20:50 14,8 C 69 % 0,0 l/m 0,8 km/h (0 Bft) N-NW 337 9,2 C 13,2 C 1,8 km/h (1 Bft)
08.05.2012 20:52 14,8 C 69 % 0,0 l/m 1,0 km/h (0 Bft) N 360 9,2 C 13,2 C 4,0 km/h (1 Bft)
08.05.2012 20:54 14,7 C 69 % 0,0 l/m 1,3 km/h (1 Bft) N-NO 22 9,1 C 13,2 C 4,3 km/h (1 Bft)
08.05.2012 20:56 14,7 C 69 % 0,0 l/m 1,6 km/h (1 Bft) NO 45 9,1 C 13,2 C 4,3 km/h (1 Bft)
08.05.2012 20:58 14,7 C 69 % 0,0 l/m 1,8 km/h (1 Bft) N 360 9,1 C 13,2 C 3,2 km/h (1 Bft)
08.05.2012 21:00 14,6 C 69 % 0,0 l/m 1,9 km/h (1 Bft) N-NO 22 9,0 C 13,2 C 3,2 km/h (1 Bft)
08.05.2012 21:02 14,7 C 69 % 0,0 l/m 1,6 km/h (1 Bft) N 360 9,1 C 13,2 C 2,9 km/h (1 Bft)
08.05.2012 21:04 14,5 C 69 % 0,0 l/m 1,3 km/h (1 Bft) S-SW 202 8,9 C 13,2 C 0,0 km/h (0 Bft)
08.05.2012 21:06 14,5 C 70 % 0,0 l/m 0,8 km/h (0 Bft) N-NO 22 9,1 C 13,1 C 1,8 km/h (1 Bft)
08.05.2012 21:08 14,4 C 70 % 0,0 l/m 0,6 km/h (0 Bft) N-NO 22 9,0 C 13,0 C 1,8 km/h (1 Bft)
08.05.2012 21:10 14,4 C 70 % 0,0 l/m 0,5 km/h (0 Bft) N-NO 22 9,0 C 13,0 C 0,0 km/h (0 Bft)
08.05.2012 21:12 14,3 C 70 % 0,0 l/m 0,2 km/h (0 Bft) N-NO 22 8,9 C 12,9 C 0,0 km/h (0 Bft)
08.05.2012 21:14 14,3 C 70 % 0,0 l/m 0,2 km/h (0 Bft) O-SO 112 8,9 C 12,9 C 0,0 km/h (0 Bft)
08.05.2012 21:16 14,1 C 70 % 0,0 l/m 0,2 km/h (0 Bft) N-NO 22 8,7 C 12,8 C 0,0 km/h (0 Bft)
08.05.2012 21:18 14,1 C 71 % 0,0 l/m 0,2 km/h (0 Bft) NO 45 8,9 C 12,7 C 0,0 km/h (0 Bft)
08.05.2012 21:20 14,0 C 71 % 0,0 l/m 0,0 km/h (0 Bft) NO 45 8,8 C 12,5 C 0,0 km/h (0 Bft)
08.05.2012 21:22 13,9 C 71 % 0,0 l/m 0,2 km/h (0 Bft) N 360 8,7 C 12,5 C 2,3 km/h (1 Bft)
08.05.2012 21:24 13,8 C 71 % 0,0 l/m 0,2 km/h (0 Bft) NO 45 8,6 C 12,4 C 2,3 km/h (1 Bft)
08.05.2012 21:26 13,9 C 72 % 0,0 l/m 0,2 km/h (0 Bft) N 360 8,9 C 12,4 C 1,6 km/h (1 Bft)
08.05.2012 21:28 13,7 C 72 % 0,0 l/m 0,2 km/h (0 Bft) NO 45 8,7 C 12,3 C 1,6 km/h (1 Bft)
08.05.2012 21:30 13,7 C 72 % 0,0 l/m 0,3 km/h (0 Bft) NO 45 8,7 C 12,3 C 2,9 km/h (1 Bft)
08.05.2012 21:32 13,6 C 72 % 0,0 l/m 0,3 km/h (0 Bft) O-NO 67 8,6 C 12,2 C 2,9 km/h (1 Bft)
08.05.2012 21:34 13,5 C 72 % 0,0 l/m 0,3 km/h (0 Bft) N-NO 22 8,6 C 12,1 C 1,6 km/h (1 Bft)
08.05.2012 21:36 13,5 C 72 % 0,0 l/m 0,6 km/h (0 Bft) O-SO 112 8,6 C 12,0 C 2,1 km/h (1 Bft)
08.05.2012 21:38 13,5 C 72 % 0,0 l/m 0,6 km/h (0 Bft) O-SO 112 8,6 C 12,0 C 2,1 km/h (1 Bft)
08.05.2012 21:40 13,4 C 72 % 0,0 l/m 0,6 km/h (0 Bft) NW 315 8,5 C 11,9 C 1,9 km/h (1 Bft)
08.05.2012 21:42 13,5 C 72 % 0,0 l/m 0,5 km/h (0 Bft) N 360 8,6 C 11,8 C 0,0 km/h (0 Bft)
08.05.2012 21:44 13,4 C 73 % 0,0 l/m 0,5 km/h (0 Bft) N-NW 337 8,7 C 11,7 C 0,0 km/h (0 Bft)
08.05.2012 21:46 13,3 C 73 % 0,0 l/m 0,2 km/h (0 Bft) N-NW 337 8,6 C 11,6 C 0,0 km/h (0 Bft)
08.05.2012 21:48 13,3 C 73 % 0,0 l/m 0,2 km/h (0 Bft) O-NO 67 8,6 C 11,5 C 0,0 km/h (0 Bft)
08.05.2012 21:50 13,2 C 73 % 0,0 l/m 0,0 km/h (0 Bft) N-NO 22 8,5 C 11,4 C 0,0 km/h (0 Bft)
08.05.2012 21:52 13,1 C 73 % 0,0 l/m 0,0 km/h (0 Bft) NO 45 8,4 C 11,3 C 0,0 km/h (0 Bft)
08.05.2012 21:54 13,1 C 73 % 0,0 l/m 0,0 km/h (0 Bft) N-NO 22 8,4 C 11,3 C 0,0 km/h (0 Bft)
08.05.2012 21:56 13,1 C 74 % 0,0 l/m 0,3 km/h (0 Bft) N-NO 22 8,6 C 11,3 C 2,4 km/h (1 Bft)
08.05.2012 21:58 13,0 C 74 % 0,0 l/m 0,8 km/h (0 Bft) NO 45 8,5 C 11,3 C 3,4 km/h (1 Bft)
08.05.2012 22:00 13,1 C 74 % 0,0 l/m 1,3 km/h (1 Bft) NW 315 8,6 C 11,4 C 3,4 km/h (1 Bft)
08.05.2012 22:02 13,1 C 75 % 0,0 l/m 1,6 km/h (1 Bft) N 360 8,8 C 11,5 C 3,5 km/h (1 Bft)
08.05.2012 22:04 13,1 C 75 % 0,0 l/m 1,9 km/h (1 Bft) N 360 8,8 C 11,5 C 3,5 km/h (1 Bft)
08.05.2012 22:06 13,1 C 74 % 0,0 l/m 2,1 km/h (1 Bft) O 90 8,6 C 11,6 C 2,9 km/h (1 Bft)
08.05.2012 22:08 13,1 C 74 % 0,0 l/m 1,8 km/h (1 Bft) NO 45 8,6 C 11,5 C 2,9 km/h (1 Bft)
08.05.2012 22:10 13,1 C 75 % 0,0 l/m 1,4 km/h (1 Bft) O-NO 67 8,8 C 11,5 C 2,4 km/h (1 Bft)
08.05.2012 22:12 12,9 C 75 % 0,0 l/m 1,4 km/h (1 Bft) NO 45 8,6 C 11,5 C 2,7 km/h (1 Bft)
08.05.2012 22:14 12,9 C 75 % 0,0 l/m 1,1 km/h (1 Bft) N-NO 22 8,6 C 11,4 C 2,7 km/h (1 Bft)
08.05.2012 22:16 12,8 C 75 % 0,0 l/m 1,0 km/h (0 Bft) N 360 8,5 C 11,4 C 0,0 km/h (0 Bft)
08.05.2012 22:18 12,8 C 75 % 0,0 l/m 0,6 km/h (0 Bft) O 90 8,5 C 11,3 C 0,0 km/h (0 Bft)
08.05.2012 22:20 12,8 C 75 % 0,0 l/m 0,6 km/h (0 Bft) N-NO 22 8,5 C 11,3 C 2,3 km/h (1 Bft)
08.05.2012 22:22 12,8 C 75 % 0,0 l/m 0,5 km/h (0 Bft) NO 45 8,5 C 11,3 C 2,3 km/h (1 Bft)
08.05.2012 22:24 12,9 C 75 % 0,0 l/m 0,2 km/h (0 Bft) O-SO 112 8,6 C 11,2 C 0,0 km/h (0 Bft)
08.05.2012 22:26 12,8 C 75 % 0,0 l/m 0,2 km/h (0 Bft) O-NO 67 8,5 C 11,2 C 0,0 km/h (0 Bft)
08.05.2012 22:28 12,8 C 75 % 0,0 l/m 0,2 km/h (0 Bft) N-NO 22 8,5 C 11,1 C 0,0 km/h (0 Bft)
08.05.2012 22:30 12,8 C 75 % 0,0 l/m 0,2 km/h (0 Bft) N-NO 22 8,5 C 11,0 C 0,0 km/h (0 Bft)
08.05.2012 22:32 12,7 C 75 % 0,0 l/m 0,0 km/h (0 Bft) NO 45 8,4 C 11,0 C 0,0 km/h (0 Bft)
08.05.2012 22:34 12,7 C 75 % 0,0 l/m 0,0 km/h (0 Bft) NO 45 8,4 C 11,0 C 0,0 km/h (0 Bft)
08.05.2012 22:36 12,7 C 75 % 0,0 l/m 0,0 km/h (0 Bft) N-NO 22 8,4 C 10,9 C 0,0 km/h (0 Bft)
08.05.2012 22:38 12,7 C 76 % 0,0 l/m 0,0 km/h (0 Bft) NO 45 8,6 C 10,9 C 1,6 km/h (1 Bft)
08.05.2012 22:40 12,6 C 76 % 0,0 l/m 0,0 km/h (0 Bft) NO 45 8,5 C 10,8 C 1,6 km/h (1 Bft)
08.05.2012 22:42 12,6 C 76 % 0,0 l/m 0,0 km/h (0 Bft) O 90 8,5 C 10,8 C 0,0 km/h (0 Bft)
08.05.2012 22:44 12,7 C 76 % 0,0 l/m 0,0 km/h (0 Bft) NO 45 8,6 C 10,8 C 0,0 km/h (0 Bft)
08.05.2012 22:46 12,6 C 76 % 0,0 l/m 0,0 km/h (0 Bft) O 90 8,5 C 10,8 C 0,0 km/h (0 Bft)
08.05.2012 22:48 12,6 C 76 % 0,0 l/m 0,0 km/h (0 Bft) N-NO 22 8,5 C 10,8 C 0,0 km/h (0 Bft)
08.05.2012 22:50 12,5 C 76 % 0,0 l/m 0,0 km/h (0 Bft) N 360 8,4 C 10,7 C 0,0 km/h (0 Bft)
08.05.2012 22:52 12,4 C 76 % 0,0 l/m 0,0 km/h (0 Bft) N 360 8,3 C 10,7 C 0,0 km/h (0 Bft)
08.05.2012 22:54 12,4 C 76 % 0,0 l/m 0,0 km/h (0 Bft) N 360 8,3 C 10,6 C 0,0 km/h (0 Bft)
08.05.2012 22:56 12,5 C 76 % 0,0 l/m 0,0 km/h (0 Bft) SO 135 8,4 C 10,5 C 0,0 km/h (0 Bft)
08.05.2012 22:58 12,4 C 76 % 0,0 l/m 0,2 km/h (0 Bft) SO 135 8,3 C 10,5 C 2,1 km/h (1 Bft)
08.05.2012 23:00 12,3 C 76 % 0,0 l/m 0,5 km/h (0 Bft) O-SO 112 8,2 C 10,5 C 2,1 km/h (1 Bft)
08.05.2012 23:02 12,3 C 76 % 0,0 l/m 0,3 km/h (0 Bft) O-NO 67 8,2 C 10,4 C 1,8 km/h (1 Bft)
08.05.2012 23:04 12,2 C 76 % 0,0 l/m 0,3 km/h (0 Bft) N-NO 22 8,1 C 10,4 C 0,0 km/h (0 Bft)
08.05.2012 23:06 12,3 C 76 % 0,0 l/m 0,3 km/h (0 Bft) N-NO 22 8,2 C 10,3 C 0,0 km/h (0 Bft)
08.05.2012 23:08 12,1 C 77 % 0,0 l/m 0,3 km/h (0 Bft) N-NO 22 8,2 C 10,2 C 0,0 km/h (0 Bft)
08.05.2012 23:10 12,1 C 76 % 0,0 l/m 0,0 km/h (0 Bft) N-NO 22 8,0 C 10,1 C 0,0 km/h (0 Bft)
08.05.2012 23:12 12,0 C 77 % 0,0 l/m 0,0 km/h (0 Bft) N 360 8,1 C 10,1 C 0,0 km/h (0 Bft)
08.05.2012 23:14 12,1 C 77 % 0,0 l/m 0,0 km/h (0 Bft) N-NO 22 8,2 C 10,0 C 0,0 km/h (0 Bft)
08.05.2012 23:16 12,0 C 77 % 0,0 l/m 0,0 km/h (0 Bft) N-NO 22 8,1 C 9,9 C 0,0 km/h (0 Bft)
08.05.2012 23:18 12,0 C 77 % 0,0 l/m 0,0 km/h (0 Bft) N-NO 22 8,1 C 9,9 C 0,0 km/h (0 Bft)
08.05.2012 23:20 11,9 C 77 % 0,0 l/m 0,0 km/h (0 Bft) N-NO 22 8,0 C 9,8 C 0,0 km/h (0 Bft)
08.05.2012 23:22 11,8 C 77 % 0,0 l/m 0,0 km/h (0 Bft) N-NO 22 7,9 C 9,7 C 0,0 km/h (0 Bft)
08.05.2012 23:24 11,9 C 77 % 0,0 l/m 0,0 km/h (0 Bft) N-NO 22 8,0 C 9,6 C 0,0 km/h (0 Bft)
08.05.2012 23:26 11,9 C 77 % 0,0 l/m 0,0 km/h (0 Bft) SO 135 8,0 C 9,6 C 0,0 km/h (0 Bft)
08.05.2012 23:28 11,8 C 77 % 0,0 l/m 0,0 km/h (0 Bft) NO 45 7,9 C 9,6 C 0,0 km/h (0 Bft)
08.05.2012 23:30 11,7 C 77 % 0,0 l/m 0,0 km/h (0 Bft) NO 45 7,8 C 9,5 C 0,0 km/h (0 Bft)
08.05.2012 23:32 11,7 C 77 % 0,0 l/m 0,0 km/h (0 Bft) NO 45 7,8 C 9,4 C 2,1 km/h (1 Bft)
08.05.2012 23:34 11,6 C 78 % 0,0 l/m 0,0 km/h (0 Bft) O 90 7,9 C 9,4 C 2,1 km/h (1 Bft)
08.05.2012 23:36 11,6 C 78 % 0,0 l/m 0,2 km/h (0 Bft) N-NO 22 7,9 C 9,4 C 1,6 km/h (1 Bft)
08.05.2012 23:38 11,6 C 78 % 0,0 l/m 0,2 km/h (0 Bft) SO 135 7,9 C 9,4 C 0,0 km/h (0 Bft)
08.05.2012 23:40 11,6 C 78 % 0,0 l/m 0,2 km/h (0 Bft) W 270 7,9 C 9,4 C 0,0 km/h (0 Bft)
08.05.2012 23:42 11,5 C 78 % 0,0 l/m 0,2 km/h (0 Bft) W 270 7,8 C 9,3 C 0,0 km/h (0 Bft)
08.05.2012 23:44 11,5 C 78 % 0,0 l/m 0,0 km/h (0 Bft) N 360 7,8 C 9,3 C 0,0 km/h (0 Bft)
08.05.2012 23:46 11,4 C 78 % 0,0 l/m 0,0 km/h (0 Bft) O 90 7,7 C 9,3 C 0,0 km/h (0 Bft)
08.05.2012 23:48 11,5 C 78 % 0,0 l/m 0,0 km/h (0 Bft) S 180 7,8 C 9,3 C 0,0 km/h (0 Bft)
08.05.2012 23:50 11,3 C 78 % 0,0 l/m 0,0 km/h (0 Bft) S 180 7,6 C 9,2 C 0,0 km/h (0 Bft)
08.05.2012 23:52 11,3 C 78 % 0,0 l/m 0,0 km/h (0 Bft) S 180 7,6 C 9,1 C 0,0 km/h (0 Bft)
08.05.2012 23:54 11,3 C 78 % 0,0 l/m 0,0 km/h (0 Bft) S 180 7,6 C 9,1 C 0,0 km/h (0 Bft)
08.05.2012 23:56 11,3 C 78 % 0,0 l/m 0,0 km/h (0 Bft) S 180 7,6 C 9,0 C 0,0 km/h (0 Bft)
08.05.2012 23:58 11,2 C 78 % 0,0 l/m 0,0 km/h (0 Bft) S 180 7,5 C 9,0 C 0,0 km/h (0 Bft)
_ Min-Zeit 05:16 12:26 - 00:12 - - 05:16 03:54 00:04
Minimum _ 4,0 C 33 % - 0,0 km/h (0 Bft) - - 1,7 C 1,8 C 0,0 km/h (0 Bft)
_ Max-Zeit 12:56 06:20 00:00 13:34 - - 19:32 15:56 15:36
Maximum _ 24,7 C 87 % 0,0 l/m 6,3 km/h
W-NW (2 Bft)
- - 10,8 C 24,7 C 15,1 km/h
W-SW (3 Bft)
Durchschnitt _ 15,1 C 61 % #0,0 l/m 1,7 km/h (1 Bft) S - 6,7 C 13,9 C 2,8 km/h (1 Bft)